<?xml version="1.0" encoding="UTF-8" standalone="no" ?>
<gpx xmlns="http://www.topografix.com/GPX/1/1" xmlns:xsi="http://www.w3.org/2001/XMLSchema-instance" xsi:schemaLocation="http://www.topografix.com/GPX/1/1 http://www.topografix.com/GPX/1/1/gpx.xsd" version="1.1" creator="VisuGPX - https://www.visugpx.com">
  <metadata>
    <name>Saint Pons - Gigaro boucle HW</name>
    <desc><![CDATA[Saint Pons - Gigaro boucle HW
]]></desc>
  </metadata>
  <trk>
    <name><![CDATA[50ACTIVE LOG- 24 AOU 2013 08-51-Gigaro]]></name>
    <trkseg>
      <trkpt lat="43.28177" lon="6.5874">
        <ele>2</ele>
        <time>2013-08-24T06:51:04Z</time>
      </trkpt>
      <trkpt lat="43.28183" lon="6.5867">
        <ele>4</ele>
        <time>2013-08-24T07:15:50Z</time>
      </trkpt>
      <trkpt lat="43.282" lon="6.58611">
        <ele>6</ele>
        <time>2013-08-24T07:16:11Z</time>
      </trkpt>
      <trkpt lat="43.28192" lon="6.5855">
        <ele>5</ele>
        <time>2013-08-24T07:16:28Z</time>
      </trkpt>
      <trkpt lat="43.28174" lon="6.58486">
        <ele>6</ele>
        <time>2013-08-24T07:16:42Z</time>
      </trkpt>
      <trkpt lat="43.28159" lon="6.58426">
        <ele>6</ele>
        <time>2013-08-24T07:16:54Z</time>
      </trkpt>
      <trkpt lat="43.28142" lon="6.58365">
        <ele>5</ele>
        <time>2013-08-24T07:17:04Z</time>
      </trkpt>
      <trkpt lat="43.28127" lon="6.583">
        <ele>6</ele>
        <time>2013-08-24T07:17:15Z</time>
      </trkpt>
      <trkpt lat="43.28108" lon="6.58241">
        <ele>5</ele>
        <time>2013-08-24T07:17:27Z</time>
      </trkpt>
      <trkpt lat="43.28094" lon="6.5818">
        <ele>5</ele>
        <time>2013-08-24T07:17:39Z</time>
      </trkpt>
      <trkpt lat="43.28078" lon="6.58118">
        <ele>5</ele>
        <time>2013-08-24T07:17:52Z</time>
      </trkpt>
      <trkpt lat="43.28061" lon="6.58052">
        <ele>6</ele>
        <time>2013-08-24T07:18:03Z</time>
      </trkpt>
      <trkpt lat="43.2804" lon="6.57997">
        <ele>7</ele>
        <time>2013-08-24T07:18:13Z</time>
      </trkpt>
      <trkpt lat="43.28019" lon="6.57941">
        <ele>7</ele>
        <time>2013-08-24T07:18:21Z</time>
      </trkpt>
      <trkpt lat="43.27994" lon="6.57888">
        <ele>8</ele>
        <time>2013-08-24T07:18:29Z</time>
      </trkpt>
      <trkpt lat="43.27963" lon="6.57833">
        <ele>8</ele>
        <time>2013-08-24T07:18:38Z</time>
      </trkpt>
      <trkpt lat="43.27936" lon="6.57783">
        <ele>9</ele>
        <time>2013-08-24T07:18:49Z</time>
      </trkpt>
      <trkpt lat="43.27911" lon="6.57725">
        <ele>9</ele>
        <time>2013-08-24T07:18:59Z</time>
      </trkpt>
      <trkpt lat="43.27885" lon="6.57667">
        <ele>8</ele>
        <time>2013-08-24T07:19:09Z</time>
      </trkpt>
      <trkpt lat="43.27845" lon="6.57628">
        <ele>8</ele>
        <time>2013-08-24T07:19:19Z</time>
      </trkpt>
      <trkpt lat="43.27805" lon="6.576">
        <ele>7</ele>
        <time>2013-08-24T07:19:28Z</time>
      </trkpt>
      <trkpt lat="43.2776" lon="6.57579">
        <ele>7</ele>
        <time>2013-08-24T07:19:38Z</time>
      </trkpt>
      <trkpt lat="43.27714" lon="6.57562">
        <ele>7</ele>
        <time>2013-08-24T07:19:47Z</time>
      </trkpt>
      <trkpt lat="43.27665" lon="6.57544">
        <ele>6</ele>
        <time>2013-08-24T07:19:57Z</time>
      </trkpt>
      <trkpt lat="43.27616" lon="6.57528">
        <ele>6</ele>
        <time>2013-08-24T07:20:07Z</time>
      </trkpt>
      <trkpt lat="43.27569" lon="6.57518">
        <ele>5</ele>
        <time>2013-08-24T07:20:18Z</time>
      </trkpt>
      <trkpt lat="43.27523" lon="6.57495">
        <ele>4</ele>
        <time>2013-08-24T07:20:29Z</time>
      </trkpt>
      <trkpt lat="43.27473" lon="6.57483">
        <ele>4</ele>
        <time>2013-08-24T07:20:40Z</time>
      </trkpt>
      <trkpt lat="43.27426" lon="6.57488">
        <ele>3</ele>
        <time>2013-08-24T07:20:52Z</time>
      </trkpt>
      <trkpt lat="43.27385" lon="6.57454">
        <ele>3</ele>
        <time>2013-08-24T07:21:04Z</time>
      </trkpt>
      <trkpt lat="43.2734" lon="6.57437">
        <ele>4</ele>
        <time>2013-08-24T07:21:16Z</time>
      </trkpt>
      <trkpt lat="43.27295" lon="6.57418">
        <ele>4</ele>
        <time>2013-08-24T07:21:25Z</time>
      </trkpt>
      <trkpt lat="43.2725" lon="6.57391">
        <ele>4</ele>
        <time>2013-08-24T07:21:34Z</time>
      </trkpt>
      <trkpt lat="43.27205" lon="6.57375">
        <ele>4</ele>
        <time>2013-08-24T07:21:43Z</time>
      </trkpt>
      <trkpt lat="43.27159" lon="6.57356">
        <ele>4</ele>
        <time>2013-08-24T07:21:53Z</time>
      </trkpt>
      <trkpt lat="43.27112" lon="6.57342">
        <ele>4</ele>
        <time>2013-08-24T07:22:03Z</time>
      </trkpt>
      <trkpt lat="43.27065" lon="6.5733">
        <ele>4</ele>
        <time>2013-08-24T07:22:14Z</time>
      </trkpt>
      <trkpt lat="43.27017" lon="6.57337">
        <ele>4</ele>
        <time>2013-08-24T07:22:25Z</time>
      </trkpt>
      <trkpt lat="43.2697" lon="6.57353">
        <ele>4</ele>
        <time>2013-08-24T07:22:35Z</time>
      </trkpt>
      <trkpt lat="43.26923" lon="6.57369">
        <ele>4</ele>
        <time>2013-08-24T07:22:46Z</time>
      </trkpt>
      <trkpt lat="43.26877" lon="6.57384">
        <ele>4</ele>
        <time>2013-08-24T07:22:56Z</time>
      </trkpt>
      <trkpt lat="43.26836" lon="6.57409">
        <ele>4</ele>
        <time>2013-08-24T07:23:08Z</time>
      </trkpt>
      <trkpt lat="43.26788" lon="6.57422">
        <ele>4</ele>
        <time>2013-08-24T07:23:20Z</time>
      </trkpt>
      <trkpt lat="43.26742" lon="6.57441">
        <ele>4</ele>
        <time>2013-08-24T07:23:31Z</time>
      </trkpt>
      <trkpt lat="43.26694" lon="6.57457">
        <ele>5</ele>
        <time>2013-08-24T07:23:42Z</time>
      </trkpt>
      <trkpt lat="43.26653" lon="6.5749">
        <ele>5</ele>
        <time>2013-08-24T07:23:52Z</time>
      </trkpt>
      <trkpt lat="43.26618" lon="6.57539">
        <ele>5</ele>
        <time>2013-08-24T07:24:02Z</time>
      </trkpt>
      <trkpt lat="43.26585" lon="6.57585">
        <ele>5</ele>
        <time>2013-08-24T07:24:11Z</time>
      </trkpt>
      <trkpt lat="43.26551" lon="6.57633">
        <ele>6</ele>
        <time>2013-08-24T07:24:21Z</time>
      </trkpt>
      <trkpt lat="43.2653" lon="6.57691">
        <ele>6</ele>
        <time>2013-08-24T07:24:35Z</time>
      </trkpt>
      <trkpt lat="43.26495" lon="6.57731">
        <ele>6</ele>
        <time>2013-08-24T07:24:50Z</time>
      </trkpt>
      <trkpt lat="43.26502" lon="6.57796">
        <ele>6</ele>
        <time>2013-08-24T07:25:04Z</time>
      </trkpt>
      <trkpt lat="43.26495" lon="6.57862">
        <ele>6</ele>
        <time>2013-08-24T07:25:15Z</time>
      </trkpt>
      <trkpt lat="43.2648" lon="6.5793">
        <ele>5</ele>
        <time>2013-08-24T07:25:25Z</time>
      </trkpt>
      <trkpt lat="43.26469" lon="6.57996">
        <ele>5</ele>
        <time>2013-08-24T07:25:35Z</time>
      </trkpt>
      <trkpt lat="43.26457" lon="6.58064">
        <ele>5</ele>
        <time>2013-08-24T07:25:45Z</time>
      </trkpt>
      <trkpt lat="43.26418" lon="6.58089">
        <ele>5</ele>
        <time>2013-08-24T07:25:56Z</time>
      </trkpt>
      <trkpt lat="43.26434" lon="6.58148">
        <ele>5</ele>
        <time>2013-08-24T07:26:10Z</time>
      </trkpt>
      <trkpt lat="43.26432" lon="6.58212">
        <ele>4</ele>
        <time>2013-08-24T07:26:21Z</time>
      </trkpt>
      <trkpt lat="43.26424" lon="6.5827">
        <ele>4</ele>
        <time>2013-08-24T07:26:31Z</time>
      </trkpt>
      <trkpt lat="43.2639" lon="6.58318">
        <ele>4</ele>
        <time>2013-08-24T07:26:40Z</time>
      </trkpt>
      <trkpt lat="43.26345" lon="6.58356">
        <ele>4</ele>
        <time>2013-08-24T07:26:49Z</time>
      </trkpt>
      <trkpt lat="43.26299" lon="6.58368">
        <ele>4</ele>
        <time>2013-08-24T07:27:08Z</time>
      </trkpt>
      <trkpt lat="43.26256" lon="6.58387">
        <ele>4</ele>
        <time>2013-08-24T07:27:51Z</time>
      </trkpt>
      <trkpt lat="43.26208" lon="6.58358">
        <ele>5</ele>
        <time>2013-08-24T07:28:03Z</time>
      </trkpt>
      <trkpt lat="43.26162" lon="6.58342">
        <ele>5</ele>
        <time>2013-08-24T07:28:16Z</time>
      </trkpt>
      <trkpt lat="43.26118" lon="6.5832">
        <ele>5</ele>
        <time>2013-08-24T07:28:27Z</time>
      </trkpt>
      <trkpt lat="43.26076" lon="6.58295">
        <ele>5</ele>
        <time>2013-08-24T07:28:38Z</time>
      </trkpt>
      <trkpt lat="43.26029" lon="6.58277">
        <ele>5</ele>
        <time>2013-08-24T07:28:49Z</time>
      </trkpt>
      <trkpt lat="43.25987" lon="6.58251">
        <ele>5</ele>
        <time>2013-08-24T07:29:00Z</time>
      </trkpt>
      <trkpt lat="43.25957" lon="6.58198">
        <ele>6</ele>
        <time>2013-08-24T07:29:11Z</time>
      </trkpt>
      <trkpt lat="43.25913" lon="6.58168">
        <ele>6</ele>
        <time>2013-08-24T07:29:22Z</time>
      </trkpt>
      <trkpt lat="43.25872" lon="6.58154">
        <ele>6</ele>
        <time>2013-08-24T07:29:33Z</time>
      </trkpt>
      <trkpt lat="43.25849" lon="6.58211">
        <ele>6</ele>
        <time>2013-08-24T07:29:44Z</time>
      </trkpt>
      <trkpt lat="43.25806" lon="6.58188">
        <ele>6</ele>
        <time>2013-08-24T07:29:57Z</time>
      </trkpt>
      <trkpt lat="43.25762" lon="6.58167">
        <ele>6</ele>
        <time>2013-08-24T07:30:09Z</time>
      </trkpt>
      <trkpt lat="43.25721" lon="6.58196">
        <ele>6</ele>
        <time>2013-08-24T07:30:22Z</time>
      </trkpt>
      <trkpt lat="43.25684" lon="6.58233">
        <ele>5</ele>
        <time>2013-08-24T07:30:33Z</time>
      </trkpt>
      <trkpt lat="43.25643" lon="6.58266">
        <ele>5</ele>
        <time>2013-08-24T07:30:44Z</time>
      </trkpt>
      <trkpt lat="43.25602" lon="6.58298">
        <ele>5</ele>
        <time>2013-08-24T07:30:56Z</time>
      </trkpt>
      <trkpt lat="43.25565" lon="6.58332">
        <ele>6</ele>
        <time>2013-08-24T07:31:07Z</time>
      </trkpt>
      <trkpt lat="43.25532" lon="6.58381">
        <ele>6</ele>
        <time>2013-08-24T07:31:17Z</time>
      </trkpt>
      <trkpt lat="43.25502" lon="6.58431">
        <ele>7</ele>
        <time>2013-08-24T07:31:29Z</time>
      </trkpt>
      <trkpt lat="43.25475" lon="6.58472">
        <ele>7</ele>
        <time>2013-08-24T07:32:07Z</time>
      </trkpt>
      <trkpt lat="43.25448" lon="6.5851">
        <ele>8</ele>
        <time>2013-08-24T07:32:51Z</time>
      </trkpt>
      <trkpt lat="43.25397" lon="6.58518">
        <ele>10</ele>
        <time>2013-08-24T07:33:12Z</time>
      </trkpt>
      <trkpt lat="43.25351" lon="6.58491">
        <ele>10</ele>
        <time>2013-08-24T07:33:28Z</time>
      </trkpt>
      <trkpt lat="43.25308" lon="6.58464">
        <ele>10</ele>
        <time>2013-08-24T07:33:42Z</time>
      </trkpt>
      <trkpt lat="43.25267" lon="6.58431">
        <ele>11</ele>
        <time>2013-08-24T07:33:58Z</time>
      </trkpt>
      <trkpt lat="43.25225" lon="6.58394">
        <ele>11</ele>
        <time>2013-08-24T07:34:11Z</time>
      </trkpt>
      <trkpt lat="43.25191" lon="6.58346">
        <ele>12</ele>
        <time>2013-08-24T07:34:26Z</time>
      </trkpt>
      <trkpt lat="43.25156" lon="6.58308">
        <ele>13</ele>
        <time>2013-08-24T07:34:40Z</time>
      </trkpt>
      <trkpt lat="43.25118" lon="6.58269">
        <ele>14</ele>
        <time>2013-08-24T07:34:56Z</time>
      </trkpt>
      <trkpt lat="43.25113" lon="6.58321">
        <ele>17</ele>
        <time>2013-08-24T07:36:16Z</time>
      </trkpt>
      <trkpt lat="43.25096" lon="6.58378">
        <ele>22</ele>
        <time>2013-08-24T07:36:49Z</time>
      </trkpt>
      <trkpt lat="43.25094" lon="6.58436">
        <ele>27</ele>
        <time>2013-08-24T07:37:22Z</time>
      </trkpt>
      <trkpt lat="43.25107" lon="6.58491">
        <ele>31</ele>
        <time>2013-08-24T07:38:03Z</time>
      </trkpt>
      <trkpt lat="43.25069" lon="6.58517">
        <ele>40</ele>
        <time>2013-08-24T07:39:35Z</time>
      </trkpt>
      <trkpt lat="43.25025" lon="6.58499">
        <ele>47</ele>
        <time>2013-08-24T07:40:34Z</time>
      </trkpt>
      <trkpt lat="43.24993" lon="6.58446">
        <ele>50</ele>
        <time>2013-08-24T07:40:59Z</time>
      </trkpt>
      <trkpt lat="43.2495" lon="6.58408">
        <ele>57</ele>
        <time>2013-08-24T07:41:43Z</time>
      </trkpt>
      <trkpt lat="43.24903" lon="6.584">
        <ele>69</ele>
        <time>2013-08-24T07:42:51Z</time>
      </trkpt>
      <trkpt lat="43.24862" lon="6.5836">
        <ele>73</ele>
        <time>2013-08-24T07:43:34Z</time>
      </trkpt>
      <trkpt lat="43.24817" lon="6.58357">
        <ele>83</ele>
        <time>2013-08-24T07:45:06Z</time>
      </trkpt>
      <trkpt lat="43.24771" lon="6.58364">
        <ele>91</ele>
        <time>2013-08-24T07:46:11Z</time>
      </trkpt>
      <trkpt lat="43.24725" lon="6.58383">
        <ele>94</ele>
        <time>2013-08-24T07:46:41Z</time>
      </trkpt>
      <trkpt lat="43.24694" lon="6.58438">
        <ele>96</ele>
        <time>2013-08-24T07:47:49Z</time>
      </trkpt>
      <trkpt lat="43.24646" lon="6.58436">
        <ele>95</ele>
        <time>2013-08-24T07:48:07Z</time>
      </trkpt>
      <trkpt lat="43.24598" lon="6.58433">
        <ele>95</ele>
        <time>2013-08-24T07:48:21Z</time>
      </trkpt>
      <trkpt lat="43.24551" lon="6.58454">
        <ele>97</ele>
        <time>2013-08-24T07:48:39Z</time>
      </trkpt>
      <trkpt lat="43.24501" lon="6.58455">
        <ele>100</ele>
        <time>2013-08-24T07:49:07Z</time>
      </trkpt>
      <trkpt lat="43.24448" lon="6.58444">
        <ele>103</ele>
        <time>2013-08-24T07:49:31Z</time>
      </trkpt>
      <trkpt lat="43.24397" lon="6.5843">
        <ele>106</ele>
        <time>2013-08-24T07:49:55Z</time>
      </trkpt>
      <trkpt lat="43.24349" lon="6.58416">
        <ele>108</ele>
        <time>2013-08-24T07:50:17Z</time>
      </trkpt>
      <trkpt lat="43.24301" lon="6.58406">
        <ele>108</ele>
        <time>2013-08-24T07:50:34Z</time>
      </trkpt>
      <trkpt lat="43.24257" lon="6.58373">
        <ele>109</ele>
        <time>2013-08-24T07:50:52Z</time>
      </trkpt>
      <trkpt lat="43.24213" lon="6.58368">
        <ele>113</ele>
        <time>2013-08-24T07:51:20Z</time>
      </trkpt>
      <trkpt lat="43.24165" lon="6.58373">
        <ele>121</ele>
        <time>2013-08-24T07:51:56Z</time>
      </trkpt>
      <trkpt lat="43.2412" lon="6.58397">
        <ele>129</ele>
        <time>2013-08-24T07:52:32Z</time>
      </trkpt>
      <trkpt lat="43.2407" lon="6.5841">
        <ele>136</ele>
        <time>2013-08-24T07:53:16Z</time>
      </trkpt>
      <trkpt lat="43.24024" lon="6.5841">
        <ele>139</ele>
        <time>2013-08-24T07:53:54Z</time>
      </trkpt>
      <trkpt lat="43.23979" lon="6.58427">
        <ele>144</ele>
        <time>2013-08-24T07:54:30Z</time>
      </trkpt>
      <trkpt lat="43.23934" lon="6.58444">
        <ele>146</ele>
        <time>2013-08-24T07:55:03Z</time>
      </trkpt>
      <trkpt lat="43.23891" lon="6.58469">
        <ele>150</ele>
        <time>2013-08-24T07:55:35Z</time>
      </trkpt>
      <trkpt lat="43.23844" lon="6.58464">
        <ele>156</ele>
        <time>2013-08-24T07:55:58Z</time>
      </trkpt>
      <trkpt lat="43.23796" lon="6.58452">
        <ele>163</ele>
        <time>2013-08-24T07:56:31Z</time>
      </trkpt>
      <trkpt lat="43.2375" lon="6.58428">
        <ele>167</ele>
        <time>2013-08-24T07:57:05Z</time>
      </trkpt>
      <trkpt lat="43.237" lon="6.58429">
        <ele>165</ele>
        <time>2013-08-24T07:58:33Z</time>
      </trkpt>
      <trkpt lat="43.23649" lon="6.58438">
        <ele>159</ele>
        <time>2013-08-24T08:00:08Z</time>
      </trkpt>
      <trkpt lat="43.23606" lon="6.58459">
        <ele>153</ele>
        <time>2013-08-24T08:00:23Z</time>
      </trkpt>
      <trkpt lat="43.23556" lon="6.58491">
        <ele>147</ele>
        <time>2013-08-24T08:00:37Z</time>
      </trkpt>
      <trkpt lat="43.23513" lon="6.58517">
        <ele>145</ele>
        <time>2013-08-24T08:00:47Z</time>
      </trkpt>
      <trkpt lat="43.23481" lon="6.58524">
        <ele>145</ele>
        <time>2013-08-24T08:01:25Z</time>
      </trkpt>
      <trkpt lat="43.23434" lon="6.58526">
        <ele>148</ele>
        <time>2013-08-24T08:02:05Z</time>
      </trkpt>
      <trkpt lat="43.23386" lon="6.58526">
        <ele>150</ele>
        <time>2013-08-24T08:02:27Z</time>
      </trkpt>
      <trkpt lat="43.23339" lon="6.58514">
        <ele>152</ele>
        <time>2013-08-24T08:02:43Z</time>
      </trkpt>
      <trkpt lat="43.23293" lon="6.58512">
        <ele>154</ele>
        <time>2013-08-24T08:03:00Z</time>
      </trkpt>
      <trkpt lat="43.23248" lon="6.58523">
        <ele>159</ele>
        <time>2013-08-24T08:03:29Z</time>
      </trkpt>
      <trkpt lat="43.23207" lon="6.58551">
        <ele>163</ele>
        <time>2013-08-24T08:03:58Z</time>
      </trkpt>
      <trkpt lat="43.2316" lon="6.58542">
        <ele>165</ele>
        <time>2013-08-24T08:04:20Z</time>
      </trkpt>
      <trkpt lat="43.23115" lon="6.58548">
        <ele>168</ele>
        <time>2013-08-24T08:04:46Z</time>
      </trkpt>
      <trkpt lat="43.23077" lon="6.58578">
        <ele>169</ele>
        <time>2013-08-24T08:05:06Z</time>
      </trkpt>
      <trkpt lat="43.23036" lon="6.58611">
        <ele>169</ele>
        <time>2013-08-24T08:05:17Z</time>
      </trkpt>
      <trkpt lat="43.22977" lon="6.58638">
        <ele>168</ele>
        <time>2013-08-24T08:05:25Z</time>
      </trkpt>
      <trkpt lat="43.2293" lon="6.58649">
        <ele>170</ele>
        <time>2013-08-24T08:05:34Z</time>
      </trkpt>
      <trkpt lat="43.22882" lon="6.58651">
        <ele>173</ele>
        <time>2013-08-24T08:05:46Z</time>
      </trkpt>
      <trkpt lat="43.22835" lon="6.58652">
        <ele>174</ele>
        <time>2013-08-24T08:05:59Z</time>
      </trkpt>
      <trkpt lat="43.22786" lon="6.58648">
        <ele>174</ele>
        <time>2013-08-24T08:06:11Z</time>
      </trkpt>
      <trkpt lat="43.22738" lon="6.58652">
        <ele>171</ele>
        <time>2013-08-24T08:06:20Z</time>
      </trkpt>
      <trkpt lat="43.22686" lon="6.58651">
        <ele>168</ele>
        <time>2013-08-24T08:06:26Z</time>
      </trkpt>
      <trkpt lat="43.22634" lon="6.58669">
        <ele>162</ele>
        <time>2013-08-24T08:06:32Z</time>
      </trkpt>
      <trkpt lat="43.22583" lon="6.58678">
        <ele>161</ele>
        <time>2013-08-24T08:06:38Z</time>
      </trkpt>
      <trkpt lat="43.22543" lon="6.58705">
        <ele>161</ele>
        <time>2013-08-24T08:06:47Z</time>
      </trkpt>
      <trkpt lat="43.22509" lon="6.58753">
        <ele>156</ele>
        <time>2013-08-24T08:07:03Z</time>
      </trkpt>
      <trkpt lat="43.22471" lon="6.58809">
        <ele>156</ele>
        <time>2013-08-24T08:07:09Z</time>
      </trkpt>
      <trkpt lat="43.22432" lon="6.5885">
        <ele>161</ele>
        <time>2013-08-24T08:07:20Z</time>
      </trkpt>
      <trkpt lat="43.2239" lon="6.58874">
        <ele>162</ele>
        <time>2013-08-24T08:07:44Z</time>
      </trkpt>
      <trkpt lat="43.22356" lon="6.58916">
        <ele>165</ele>
        <time>2013-08-24T08:08:09Z</time>
      </trkpt>
      <trkpt lat="43.2232" lon="6.5896">
        <ele>161</ele>
        <time>2013-08-24T08:08:27Z</time>
      </trkpt>
      <trkpt lat="43.22269" lon="6.58976">
        <ele>163</ele>
        <time>2013-08-24T08:08:33Z</time>
      </trkpt>
      <trkpt lat="43.22223" lon="6.58986">
        <ele>164</ele>
        <time>2013-08-24T08:08:40Z</time>
      </trkpt>
      <trkpt lat="43.22215" lon="6.59044">
        <ele>166</ele>
        <time>2013-08-24T08:08:49Z</time>
      </trkpt>
      <trkpt lat="43.22232" lon="6.59103">
        <ele>165</ele>
        <time>2013-08-24T08:09:07Z</time>
      </trkpt>
      <trkpt lat="43.22199" lon="6.59152">
        <ele>171</ele>
        <time>2013-08-24T08:09:34Z</time>
      </trkpt>
      <trkpt lat="43.22159" lon="6.59185">
        <ele>179</ele>
        <time>2013-08-24T08:10:07Z</time>
      </trkpt>
      <trkpt lat="43.22124" lon="6.59224">
        <ele>186</ele>
        <time>2013-08-24T08:10:37Z</time>
      </trkpt>
      <trkpt lat="43.22085" lon="6.59259">
        <ele>194</ele>
        <time>2013-08-24T08:11:10Z</time>
      </trkpt>
      <trkpt lat="43.2204" lon="6.59295">
        <ele>193</ele>
        <time>2013-08-24T08:11:31Z</time>
      </trkpt>
      <trkpt lat="43.22028" lon="6.59351">
        <ele>193</ele>
        <time>2013-08-24T08:11:47Z</time>
      </trkpt>
      <trkpt lat="43.2204" lon="6.59414">
        <ele>196</ele>
        <time>2013-08-24T08:12:00Z</time>
      </trkpt>
      <trkpt lat="43.22024" lon="6.59461">
        <ele>195</ele>
        <time>2013-08-24T08:12:15Z</time>
      </trkpt>
      <trkpt lat="43.21975" lon="6.59455">
        <ele>197</ele>
        <time>2013-08-24T08:13:01Z</time>
      </trkpt>
      <trkpt lat="43.21938" lon="6.59488">
        <ele>203</ele>
        <time>2013-08-24T08:13:22Z</time>
      </trkpt>
      <trkpt lat="43.21901" lon="6.59523">
        <ele>207</ele>
        <time>2013-08-24T08:13:49Z</time>
      </trkpt>
      <trkpt lat="43.21863" lon="6.59563">
        <ele>211</ele>
        <time>2013-08-24T08:14:17Z</time>
      </trkpt>
      <trkpt lat="43.21843" lon="6.59619">
        <ele>215</ele>
        <time>2013-08-24T08:14:44Z</time>
      </trkpt>
      <trkpt lat="43.21831" lon="6.59676">
        <ele>216</ele>
        <time>2013-08-24T08:15:01Z</time>
      </trkpt>
      <trkpt lat="43.21816" lon="6.5973">
        <ele>223</ele>
        <time>2013-08-24T08:15:30Z</time>
      </trkpt>
      <trkpt lat="43.21767" lon="6.59756">
        <ele>224</ele>
        <time>2013-08-24T08:16:04Z</time>
      </trkpt>
      <trkpt lat="43.21751" lon="6.59815">
        <ele>233</ele>
        <time>2013-08-24T08:16:39Z</time>
      </trkpt>
      <trkpt lat="43.21763" lon="6.59871">
        <ele>239</ele>
        <time>2013-08-24T08:17:12Z</time>
      </trkpt>
      <trkpt lat="43.21789" lon="6.59917">
        <ele>246</ele>
        <time>2013-08-24T08:17:36Z</time>
      </trkpt>
      <trkpt lat="43.21761" lon="6.59972">
        <ele>250</ele>
        <time>2013-08-24T08:17:59Z</time>
      </trkpt>
      <trkpt lat="43.21729" lon="6.60017">
        <ele>253</ele>
        <time>2013-08-24T08:18:21Z</time>
      </trkpt>
      <trkpt lat="43.21694" lon="6.60062">
        <ele>253</ele>
        <time>2013-08-24T08:20:29Z</time>
      </trkpt>
      <trkpt lat="43.21663" lon="6.60106">
        <ele>253</ele>
        <time>2013-08-24T08:20:46Z</time>
      </trkpt>
      <trkpt lat="43.21624" lon="6.60146">
        <ele>252</ele>
        <time>2013-08-24T08:20:58Z</time>
      </trkpt>
      <trkpt lat="43.21581" lon="6.6019">
        <ele>250</ele>
        <time>2013-08-24T08:21:09Z</time>
      </trkpt>
      <trkpt lat="43.21565" lon="6.60241">
        <ele>254</ele>
        <time>2013-08-24T08:21:37Z</time>
      </trkpt>
      <trkpt lat="43.21561" lon="6.60306">
        <ele>266</ele>
        <time>2013-08-24T08:22:13Z</time>
      </trkpt>
      <trkpt lat="43.21542" lon="6.60362">
        <ele>273</ele>
        <time>2013-08-24T08:22:45Z</time>
      </trkpt>
      <trkpt lat="43.21512" lon="6.6041">
        <ele>277</ele>
        <time>2013-08-24T08:23:09Z</time>
      </trkpt>
      <trkpt lat="43.21477" lon="6.60451">
        <ele>278</ele>
        <time>2013-08-24T08:23:26Z</time>
      </trkpt>
      <trkpt lat="43.21434" lon="6.60481">
        <ele>272</ele>
        <time>2013-08-24T08:23:44Z</time>
      </trkpt>
      <trkpt lat="43.21387" lon="6.60507">
        <ele>272</ele>
        <time>2013-08-24T08:24:04Z</time>
      </trkpt>
      <trkpt lat="43.2135" lon="6.6053">
        <ele>269</ele>
        <time>2013-08-24T08:25:32Z</time>
      </trkpt>
      <trkpt lat="43.21301" lon="6.60541">
        <ele>267</ele>
        <time>2013-08-24T08:25:39Z</time>
      </trkpt>
      <trkpt lat="43.21249" lon="6.60527">
        <ele>263</ele>
        <time>2013-08-24T08:25:47Z</time>
      </trkpt>
      <trkpt lat="43.21229" lon="6.60585">
        <ele>260</ele>
        <time>2013-08-24T08:25:54Z</time>
      </trkpt>
      <trkpt lat="43.212" lon="6.60614">
        <ele>257</ele>
        <time>2013-08-24T08:26:07Z</time>
      </trkpt>
      <trkpt lat="43.21154" lon="6.606">
        <ele>254</ele>
        <time>2013-08-24T08:26:44Z</time>
      </trkpt>
      <trkpt lat="43.21136" lon="6.60575">
        <ele>251</ele>
        <time>2013-08-24T08:27:29Z</time>
      </trkpt>
      <trkpt lat="43.21132" lon="6.60515">
        <ele>243</ele>
        <time>2013-08-24T08:27:44Z</time>
      </trkpt>
      <trkpt lat="43.21105" lon="6.6046">
        <ele>235</ele>
        <time>2013-08-24T08:28:02Z</time>
      </trkpt>
      <trkpt lat="43.21057" lon="6.60436">
        <ele>231.699936</ele>
        <time>2013-08-24T08:28:20Z</time>
      </trkpt>
      <trkpt lat="43.20984" lon="6.60363">
        <ele>209.809341</ele>
      </trkpt>
      <trkpt lat="43.20952" lon="6.60327">
        <ele>200.114471</ele>
      </trkpt>
      <trkpt lat="43.20917" lon="6.60316">
        <ele>204</ele>
        <time>2013-08-24T08:37:21Z</time>
      </trkpt>
      <trkpt lat="43.20873" lon="6.60338">
        <ele>204</ele>
        <time>2013-08-24T08:37:38Z</time>
      </trkpt>
      <trkpt lat="43.20827" lon="6.6035">
        <ele>205</ele>
        <time>2013-08-24T08:37:55Z</time>
      </trkpt>
      <trkpt lat="43.20782" lon="6.60332">
        <ele>208</ele>
        <time>2013-08-24T08:38:09Z</time>
      </trkpt>
      <trkpt lat="43.20737" lon="6.60332">
        <ele>210</ele>
        <time>2013-08-24T08:38:24Z</time>
      </trkpt>
      <trkpt lat="43.20691" lon="6.60348">
        <ele>213</ele>
        <time>2013-08-24T08:38:39Z</time>
      </trkpt>
      <trkpt lat="43.20661" lon="6.60394">
        <ele>210</ele>
        <time>2013-08-24T08:38:50Z</time>
      </trkpt>
      <trkpt lat="43.20613" lon="6.60418">
        <ele>210</ele>
        <time>2013-08-24T08:38:58Z</time>
      </trkpt>
      <trkpt lat="43.20568" lon="6.60439">
        <ele>206</ele>
        <time>2013-08-24T08:39:05Z</time>
      </trkpt>
      <trkpt lat="43.20522" lon="6.60432">
        <ele>204</ele>
        <time>2013-08-24T08:39:13Z</time>
      </trkpt>
      <trkpt lat="43.20476" lon="6.60418">
        <ele>201</ele>
        <time>2013-08-24T08:39:19Z</time>
      </trkpt>
      <trkpt lat="43.20428" lon="6.60426">
        <ele>197</ele>
        <time>2013-08-24T08:39:26Z</time>
      </trkpt>
      <trkpt lat="43.20384" lon="6.60453">
        <ele>192</ele>
        <time>2013-08-24T08:39:33Z</time>
      </trkpt>
      <trkpt lat="43.20343" lon="6.60426">
        <ele>193</ele>
        <time>2013-08-24T08:39:52Z</time>
      </trkpt>
      <trkpt lat="43.20299" lon="6.60412">
        <ele>186</ele>
        <time>2013-08-24T08:40:05Z</time>
      </trkpt>
      <trkpt lat="43.20254" lon="6.60432">
        <ele>183</ele>
        <time>2013-08-24T08:40:14Z</time>
      </trkpt>
      <trkpt lat="43.20215" lon="6.60458">
        <ele>180</ele>
        <time>2013-08-24T08:44:43Z</time>
      </trkpt>
      <trkpt lat="43.20167" lon="6.60492">
        <ele>180</ele>
        <time>2013-08-24T08:44:51Z</time>
      </trkpt>
      <trkpt lat="43.20125" lon="6.60482">
        <ele>181</ele>
        <time>2013-08-24T08:45:08Z</time>
      </trkpt>
      <trkpt lat="43.20075" lon="6.60478">
        <ele>175</ele>
        <time>2013-08-24T08:45:17Z</time>
      </trkpt>
      <trkpt lat="43.20033" lon="6.6048">
        <ele>169</ele>
        <time>2013-08-24T08:45:34Z</time>
      </trkpt>
      <trkpt lat="43.19987" lon="6.60479">
        <ele>163</ele>
        <time>2013-08-24T08:45:45Z</time>
      </trkpt>
      <trkpt lat="43.1994" lon="6.60496">
        <ele>162</ele>
        <time>2013-08-24T08:45:55Z</time>
      </trkpt>
      <trkpt lat="43.19891" lon="6.60517">
        <ele>160</ele>
        <time>2013-08-24T08:46:04Z</time>
      </trkpt>
      <trkpt lat="43.19904" lon="6.60465">
        <ele>149</ele>
        <time>2013-08-24T08:48:39Z</time>
      </trkpt>
      <trkpt lat="43.1995" lon="6.6043">
        <ele>143</ele>
        <time>2013-08-24T08:48:51Z</time>
      </trkpt>
      <trkpt lat="43.19997" lon="6.60398">
        <ele>139</ele>
        <time>2013-08-24T08:49:03Z</time>
      </trkpt>
      <trkpt lat="43.20043" lon="6.60368">
        <ele>137</ele>
        <time>2013-08-24T08:49:16Z</time>
      </trkpt>
      <trkpt lat="43.20091" lon="6.60345">
        <ele>137</ele>
        <time>2013-08-24T08:49:29Z</time>
      </trkpt>
      <trkpt lat="43.20124" lon="6.60299">
        <ele>134</ele>
        <time>2013-08-24T08:49:40Z</time>
      </trkpt>
      <trkpt lat="43.20152" lon="6.60252">
        <ele>130</ele>
        <time>2013-08-24T08:49:49Z</time>
      </trkpt>
      <trkpt lat="43.20192" lon="6.60217">
        <ele>126</ele>
        <time>2013-08-24T08:49:58Z</time>
      </trkpt>
      <trkpt lat="43.20189" lon="6.60181">
        <ele>115</ele>
        <time>2013-08-24T08:50:10Z</time>
      </trkpt>
      <trkpt lat="43.20145" lon="6.60175">
        <ele>111</ele>
        <time>2013-08-24T08:50:19Z</time>
      </trkpt>
      <trkpt lat="43.20127" lon="6.6018">
        <ele>110</ele>
        <time>2013-08-24T08:51:45Z</time>
      </trkpt>
      <trkpt lat="43.20081" lon="6.60207">
        <ele>107</ele>
        <time>2013-08-24T08:51:57Z</time>
      </trkpt>
      <trkpt lat="43.20033" lon="6.60208">
        <ele>101</ele>
        <time>2013-08-24T08:52:09Z</time>
      </trkpt>
      <trkpt lat="43.19984" lon="6.60198">
        <ele>97</ele>
        <time>2013-08-24T08:52:32Z</time>
      </trkpt>
      <trkpt lat="43.19938" lon="6.60211">
        <ele>95</ele>
        <time>2013-08-24T08:52:38Z</time>
      </trkpt>
      <trkpt lat="43.19897" lon="6.60235">
        <ele>95</ele>
        <time>2013-08-24T08:52:46Z</time>
      </trkpt>
      <trkpt lat="43.19848" lon="6.60238">
        <ele>93</ele>
        <time>2013-08-24T08:52:53Z</time>
      </trkpt>
      <trkpt lat="43.19818" lon="6.60192">
        <ele>85</ele>
        <time>2013-08-24T08:53:03Z</time>
      </trkpt>
      <trkpt lat="43.19778" lon="6.60151">
        <ele>80</ele>
        <time>2013-08-24T08:53:09Z</time>
      </trkpt>
      <trkpt lat="43.19737" lon="6.60134">
        <ele>76</ele>
        <time>2013-08-24T08:53:21Z</time>
      </trkpt>
      <trkpt lat="43.1969" lon="6.60138">
        <ele>76</ele>
        <time>2013-08-24T08:53:38Z</time>
      </trkpt>
      <trkpt lat="43.19642" lon="6.60144">
        <ele>71</ele>
        <time>2013-08-24T08:53:46Z</time>
      </trkpt>
      <trkpt lat="43.19592" lon="6.60144">
        <ele>67</ele>
        <time>2013-08-24T08:53:53Z</time>
      </trkpt>
      <trkpt lat="43.19547" lon="6.60138">
        <ele>64</ele>
        <time>2013-08-24T08:54:01Z</time>
      </trkpt>
      <trkpt lat="43.19502" lon="6.60125">
        <ele>61</ele>
        <time>2013-08-24T08:54:08Z</time>
      </trkpt>
      <trkpt lat="43.19458" lon="6.60117">
        <ele>54</ele>
        <time>2013-08-24T08:54:15Z</time>
      </trkpt>
      <trkpt lat="43.19423" lon="6.6016">
        <ele>50</ele>
        <time>2013-08-24T08:54:25Z</time>
      </trkpt>
      <trkpt lat="43.19374" lon="6.60126">
        <ele>46</ele>
        <time>2013-08-24T08:54:32Z</time>
      </trkpt>
      <trkpt lat="43.1933" lon="6.60131">
        <ele>50</ele>
        <time>2013-08-24T08:54:43Z</time>
      </trkpt>
      <trkpt lat="43.19286" lon="6.60141">
        <ele>50</ele>
        <time>2013-08-24T08:54:58Z</time>
      </trkpt>
      <trkpt lat="43.1924" lon="6.6016">
        <ele>49</ele>
        <time>2013-08-24T08:55:07Z</time>
      </trkpt>
      <trkpt lat="43.19207" lon="6.60207">
        <ele>45</ele>
        <time>2013-08-24T08:55:14Z</time>
      </trkpt>
      <trkpt lat="43.19184" lon="6.60263">
        <ele>41</ele>
        <time>2013-08-24T08:55:22Z</time>
      </trkpt>
      <trkpt lat="43.19156" lon="6.6027">
        <ele>40</ele>
        <time>2013-08-24T08:56:08Z</time>
      </trkpt>
      <trkpt lat="43.19112" lon="6.6025">
        <ele>40</ele>
        <time>2013-08-24T08:56:20Z</time>
      </trkpt>
      <trkpt lat="43.1907" lon="6.60227">
        <ele>37</ele>
        <time>2013-08-24T08:56:32Z</time>
      </trkpt>
      <trkpt lat="43.19035" lon="6.60179">
        <ele>35</ele>
        <time>2013-08-24T08:56:48Z</time>
      </trkpt>
      <trkpt lat="43.18986" lon="6.60166">
        <ele>37</ele>
        <time>2013-08-24T08:57:00Z</time>
      </trkpt>
      <trkpt lat="43.18943" lon="6.60152">
        <ele>35</ele>
        <time>2013-08-24T08:57:12Z</time>
      </trkpt>
      <trkpt lat="43.18921" lon="6.6009">
        <ele>29.069141</ele>
      </trkpt>
      <trkpt lat="43.18829" lon="6.60078">
        <ele>27.1425</ele>
      </trkpt>
      <trkpt lat="43.18756" lon="6.6003">
        <ele>22.372499</ele>
      </trkpt>
      <trkpt lat="43.18698" lon="6.60021">
        <ele>20.253548</ele>
        <time>2013-08-24T09:01:12Z</time>
      </trkpt>
      <trkpt lat="43.18587" lon="6.60032">
        <ele>17</ele>
        <time>2013-08-24T09:01:21Z</time>
      </trkpt>
      <trkpt lat="43.18558" lon="6.60081">
        <ele>18</ele>
        <time>2013-08-24T09:01:33Z</time>
      </trkpt>
      <trkpt lat="43.18521" lon="6.60099">
        <ele>17</ele>
        <time>2013-08-24T09:01:48Z</time>
      </trkpt>
      <trkpt lat="43.18473" lon="6.60075">
        <ele>14</ele>
        <time>2013-08-24T09:01:59Z</time>
      </trkpt>
      <trkpt lat="43.18427" lon="6.60064">
        <ele>12</ele>
        <time>2013-08-24T09:02:06Z</time>
      </trkpt>
      <trkpt lat="43.18383" lon="6.60055">
        <ele>10</ele>
        <time>2013-08-24T09:02:23Z</time>
      </trkpt>
      <trkpt lat="43.18365" lon="6.60093">
        <ele>9</ele>
        <time>2013-08-24T09:15:46Z</time>
      </trkpt>
      <trkpt lat="43.18344" lon="6.60167">
        <ele>9.155944</ele>
        <time>2013-08-24T09:33:25Z</time>
      </trkpt>
      <trkpt lat="43.1843" lon="6.60328">
        <ele>20</ele>
        <time>2013-08-24T09:33:49Z</time>
      </trkpt>
      <trkpt lat="43.18457" lon="6.60378">
        <ele>27</ele>
        <time>2013-08-24T09:34:19Z</time>
      </trkpt>
      <trkpt lat="43.1845" lon="6.60439">
        <ele>39</ele>
        <time>2013-08-24T09:34:52Z</time>
      </trkpt>
      <trkpt lat="43.18409" lon="6.60458">
        <ele>44</ele>
        <time>2013-08-24T09:35:19Z</time>
      </trkpt>
      <trkpt lat="43.18376" lon="6.6042">
        <ele>38</ele>
        <time>2013-08-24T09:35:46Z</time>
      </trkpt>
      <trkpt lat="43.1833" lon="6.60412">
        <ele>41</ele>
        <time>2013-08-24T09:36:13Z</time>
      </trkpt>
      <trkpt lat="43.18305" lon="6.60454">
        <ele>48</ele>
        <time>2013-08-24T09:37:35Z</time>
      </trkpt>
      <trkpt lat="43.18296" lon="6.60513">
        <ele>52</ele>
        <time>2013-08-24T09:38:03Z</time>
      </trkpt>
      <trkpt lat="43.1827" lon="6.60568">
        <ele>54</ele>
        <time>2013-08-24T09:38:26Z</time>
      </trkpt>
      <trkpt lat="43.18251" lon="6.60625">
        <ele>53</ele>
        <time>2013-08-24T09:38:44Z</time>
      </trkpt>
      <trkpt lat="43.18219" lon="6.60665">
        <ele>48</ele>
        <time>2013-08-24T09:38:57Z</time>
      </trkpt>
      <trkpt lat="43.18172" lon="6.60631">
        <ele>43</ele>
        <time>2013-08-24T09:39:05Z</time>
      </trkpt>
      <trkpt lat="43.18126" lon="6.60614">
        <ele>42</ele>
        <time>2013-08-24T09:39:14Z</time>
      </trkpt>
      <trkpt lat="43.18085" lon="6.60638">
        <ele>46</ele>
        <time>2013-08-24T09:39:30Z</time>
      </trkpt>
      <trkpt lat="43.18046" lon="6.6067">
        <ele>49</ele>
        <time>2013-08-24T09:39:48Z</time>
      </trkpt>
      <trkpt lat="43.18002" lon="6.60698">
        <ele>51</ele>
        <time>2013-08-24T09:40:06Z</time>
      </trkpt>
      <trkpt lat="43.17959" lon="6.60721">
        <ele>56</ele>
        <time>2013-08-24T09:40:28Z</time>
      </trkpt>
      <trkpt lat="43.17913" lon="6.60726">
        <ele>59</ele>
        <time>2013-08-24T09:40:48Z</time>
      </trkpt>
      <trkpt lat="43.17869" lon="6.60733">
        <ele>60</ele>
        <time>2013-08-24T09:41:06Z</time>
      </trkpt>
      <trkpt lat="43.17822" lon="6.60741">
        <ele>57</ele>
        <time>2013-08-24T09:41:17Z</time>
      </trkpt>
      <trkpt lat="43.17771" lon="6.60735">
        <ele>49</ele>
        <time>2013-08-24T09:41:24Z</time>
      </trkpt>
      <trkpt lat="43.17724" lon="6.60723">
        <ele>45</ele>
        <time>2013-08-24T09:41:32Z</time>
      </trkpt>
      <trkpt lat="43.17683" lon="6.6069">
        <ele>45</ele>
        <time>2013-08-24T09:41:40Z</time>
      </trkpt>
      <trkpt lat="43.17647" lon="6.60656">
        <ele>46</ele>
        <time>2013-08-24T09:41:54Z</time>
      </trkpt>
      <trkpt lat="43.17607" lon="6.60672">
        <ele>51</ele>
        <time>2013-08-24T09:42:09Z</time>
      </trkpt>
      <trkpt lat="43.17585" lon="6.60731">
        <ele>57</ele>
        <time>2013-08-24T09:42:23Z</time>
      </trkpt>
      <trkpt lat="43.17538" lon="6.60751">
        <ele>55</ele>
        <time>2013-08-24T09:42:33Z</time>
      </trkpt>
      <trkpt lat="43.17497" lon="6.60778">
        <ele>53</ele>
        <time>2013-08-24T09:42:48Z</time>
      </trkpt>
      <trkpt lat="43.17457" lon="6.60805">
        <ele>49</ele>
        <time>2013-08-24T09:43:08Z</time>
      </trkpt>
      <trkpt lat="43.17435" lon="6.6086">
        <ele>43</ele>
        <time>2013-08-24T09:43:19Z</time>
      </trkpt>
      <trkpt lat="43.17449" lon="6.6092">
        <ele>47</ele>
        <time>2013-08-24T09:43:28Z</time>
      </trkpt>
      <trkpt lat="43.17408" lon="6.60955">
        <ele>37</ele>
        <time>2013-08-24T09:43:35Z</time>
      </trkpt>
      <trkpt lat="43.17369" lon="6.61">
        <ele>28</ele>
        <time>2013-08-24T09:43:42Z</time>
      </trkpt>
      <trkpt lat="43.17358" lon="6.61066">
        <ele>26</ele>
        <time>2013-08-24T09:43:47Z</time>
      </trkpt>
      <trkpt lat="43.1735" lon="6.61132">
        <ele>25</ele>
        <time>2013-08-24T09:43:54Z</time>
      </trkpt>
      <trkpt lat="43.17345" lon="6.61122">
        <ele>25</ele>
        <time>2013-08-24T09:44:30Z</time>
      </trkpt>
      <trkpt lat="43.17364" lon="6.6114">
        <ele>25</ele>
        <time>2013-08-24T09:44:59Z</time>
      </trkpt>
      <trkpt lat="43.17369" lon="6.61202">
        <ele>29</ele>
        <time>2013-08-24T09:45:27Z</time>
      </trkpt>
      <trkpt lat="43.17378" lon="6.61258">
        <ele>34</ele>
        <time>2013-08-24T09:46:18Z</time>
      </trkpt>
      <trkpt lat="43.17388" lon="6.61316">
        <ele>36</ele>
        <time>2013-08-24T09:46:44Z</time>
      </trkpt>
      <trkpt lat="43.17412" lon="6.6137">
        <ele>39</ele>
        <time>2013-08-24T09:48:35Z</time>
      </trkpt>
      <trkpt lat="43.17431" lon="6.61422">
        <ele>44</ele>
        <time>2013-08-24T09:55:49Z</time>
      </trkpt>
      <trkpt lat="43.17466" lon="6.61465">
        <ele>51</ele>
        <time>2013-08-24T09:56:31Z</time>
      </trkpt>
      <trkpt lat="43.17497" lon="6.61511">
        <ele>57</ele>
        <time>2013-08-24T09:57:11Z</time>
      </trkpt>
      <trkpt lat="43.17519" lon="6.61567">
        <ele>63</ele>
        <time>2013-08-24T09:57:48Z</time>
      </trkpt>
      <trkpt lat="43.17538" lon="6.61623">
        <ele>66</ele>
        <time>2013-08-24T09:58:14Z</time>
      </trkpt>
      <trkpt lat="43.1755" lon="6.61679">
        <ele>65</ele>
        <time>2013-08-24T09:58:39Z</time>
      </trkpt>
      <trkpt lat="43.17576" lon="6.61739">
        <ele>61</ele>
        <time>2013-08-24T09:58:51Z</time>
      </trkpt>
      <trkpt lat="43.17615" lon="6.61778">
        <ele>58</ele>
        <time>2013-08-24T09:59:00Z</time>
      </trkpt>
      <trkpt lat="43.17641" lon="6.61832">
        <ele>56</ele>
        <time>2013-08-24T09:59:08Z</time>
      </trkpt>
      <trkpt lat="43.17667" lon="6.61884">
        <ele>53</ele>
        <time>2013-08-24T09:59:15Z</time>
      </trkpt>
      <trkpt lat="43.177" lon="6.61934">
        <ele>51</ele>
        <time>2013-08-24T09:59:24Z</time>
      </trkpt>
      <trkpt lat="43.17685" lon="6.62005">
        <ele>42</ele>
        <time>2013-08-24T09:59:32Z</time>
      </trkpt>
      <trkpt lat="43.17693" lon="6.62064">
        <ele>36</ele>
        <time>2013-08-24T09:59:38Z</time>
      </trkpt>
      <trkpt lat="43.17706" lon="6.62129">
        <ele>35</ele>
        <time>2013-08-24T09:59:44Z</time>
      </trkpt>
      <trkpt lat="43.17706" lon="6.62197">
        <ele>34</ele>
        <time>2013-08-24T09:59:52Z</time>
      </trkpt>
      <trkpt lat="43.17722" lon="6.62257">
        <ele>32</ele>
        <time>2013-08-24T10:00:03Z</time>
      </trkpt>
      <trkpt lat="43.17737" lon="6.62316">
        <ele>28</ele>
        <time>2013-08-24T10:00:18Z</time>
      </trkpt>
      <trkpt lat="43.1775" lon="6.62376">
        <ele>26</ele>
        <time>2013-08-24T10:00:28Z</time>
      </trkpt>
      <trkpt lat="43.17759" lon="6.62441">
        <ele>28</ele>
        <time>2013-08-24T10:00:38Z</time>
      </trkpt>
      <trkpt lat="43.17756" lon="6.62508">
        <ele>26</ele>
        <time>2013-08-24T10:00:48Z</time>
      </trkpt>
      <trkpt lat="43.17752" lon="6.62573">
        <ele>22</ele>
        <time>2013-08-24T10:00:56Z</time>
      </trkpt>
      <trkpt lat="43.1778" lon="6.62623">
        <ele>19</ele>
        <time>2013-08-24T10:01:03Z</time>
      </trkpt>
      <trkpt lat="43.17824" lon="6.62649">
        <ele>18</ele>
        <time>2013-08-24T10:01:10Z</time>
      </trkpt>
      <trkpt lat="43.17868" lon="6.62642">
        <ele>21</ele>
        <time>2013-08-24T10:01:23Z</time>
      </trkpt>
      <trkpt lat="43.17911" lon="6.62664">
        <ele>24</ele>
        <time>2013-08-24T10:01:44Z</time>
      </trkpt>
      <trkpt lat="43.17954" lon="6.62693">
        <ele>25</ele>
        <time>2013-08-24T10:02:01Z</time>
      </trkpt>
      <trkpt lat="43.17992" lon="6.62728">
        <ele>22</ele>
        <time>2013-08-24T10:02:52Z</time>
      </trkpt>
      <trkpt lat="43.18029" lon="6.62767">
        <ele>24</ele>
        <time>2013-08-24T10:03:07Z</time>
      </trkpt>
      <trkpt lat="43.18075" lon="6.62784">
        <ele>27</ele>
        <time>2013-08-24T10:03:25Z</time>
      </trkpt>
      <trkpt lat="43.18111" lon="6.62811">
        <ele>31</ele>
        <time>2013-08-24T10:03:50Z</time>
      </trkpt>
      <trkpt lat="43.1815" lon="6.62845">
        <ele>32</ele>
        <time>2013-08-24T10:04:15Z</time>
      </trkpt>
      <trkpt lat="43.18193" lon="6.6286">
        <ele>38</ele>
        <time>2013-08-24T10:04:38Z</time>
      </trkpt>
      <trkpt lat="43.18242" lon="6.62863">
        <ele>44</ele>
        <time>2013-08-24T10:05:03Z</time>
      </trkpt>
      <trkpt lat="43.18282" lon="6.62886">
        <ele>45</ele>
        <time>2013-08-24T10:05:26Z</time>
      </trkpt>
      <trkpt lat="43.1833" lon="6.62892">
        <ele>48</ele>
        <time>2013-08-24T10:05:53Z</time>
      </trkpt>
      <trkpt lat="43.18376" lon="6.62896">
        <ele>50</ele>
        <time>2013-08-24T10:06:22Z</time>
      </trkpt>
      <trkpt lat="43.18419" lon="6.62892">
        <ele>52</ele>
        <time>2013-08-24T10:06:49Z</time>
      </trkpt>
      <trkpt lat="43.18455" lon="6.62856">
        <ele>58</ele>
        <time>2013-08-24T10:07:09Z</time>
      </trkpt>
      <trkpt lat="43.18496" lon="6.62828">
        <ele>61</ele>
        <time>2013-08-24T10:07:25Z</time>
      </trkpt>
      <trkpt lat="43.18544" lon="6.62804">
        <ele>64</ele>
        <time>2013-08-24T10:07:42Z</time>
      </trkpt>
      <trkpt lat="43.18584" lon="6.62786">
        <ele>68</ele>
        <time>2013-08-24T10:10:31Z</time>
      </trkpt>
      <trkpt lat="43.18625" lon="6.62763">
        <ele>72</ele>
        <time>2013-08-24T10:10:56Z</time>
      </trkpt>
      <trkpt lat="43.18669" lon="6.62749">
        <ele>76</ele>
        <time>2013-08-24T10:11:24Z</time>
      </trkpt>
      <trkpt lat="43.18713" lon="6.62749">
        <ele>76</ele>
        <time>2013-08-24T10:11:50Z</time>
      </trkpt>
      <trkpt lat="43.18757" lon="6.62738">
        <ele>80</ele>
        <time>2013-08-24T10:12:16Z</time>
      </trkpt>
      <trkpt lat="43.18803" lon="6.62717">
        <ele>86</ele>
        <time>2013-08-24T10:12:44Z</time>
      </trkpt>
      <trkpt lat="43.18847" lon="6.62685">
        <ele>89</ele>
        <time>2013-08-24T10:13:13Z</time>
      </trkpt>
      <trkpt lat="43.18887" lon="6.62643">
        <ele>92</ele>
        <time>2013-08-24T10:13:43Z</time>
      </trkpt>
      <trkpt lat="43.18929" lon="6.62607">
        <ele>97</ele>
        <time>2013-08-24T10:14:13Z</time>
      </trkpt>
      <trkpt lat="43.1898" lon="6.62582">
        <ele>104</ele>
        <time>2013-08-24T10:14:45Z</time>
      </trkpt>
      <trkpt lat="43.19022" lon="6.62596">
        <ele>104</ele>
        <time>2013-08-24T10:15:08Z</time>
      </trkpt>
      <trkpt lat="43.19061" lon="6.62623">
        <ele>103</ele>
        <time>2013-08-24T10:15:31Z</time>
      </trkpt>
      <trkpt lat="43.19099" lon="6.62605">
        <ele>102</ele>
        <time>2013-08-24T10:15:53Z</time>
      </trkpt>
      <trkpt lat="43.19134" lon="6.62561">
        <ele>111</ele>
        <time>2013-08-24T10:16:15Z</time>
      </trkpt>
      <trkpt lat="43.19168" lon="6.62509">
        <ele>117</ele>
        <time>2013-08-24T10:16:41Z</time>
      </trkpt>
      <trkpt lat="43.19216" lon="6.62494">
        <ele>119</ele>
        <time>2013-08-24T10:17:07Z</time>
      </trkpt>
      <trkpt lat="43.19245" lon="6.62449">
        <ele>116</ele>
        <time>2013-08-24T10:18:09Z</time>
      </trkpt>
      <trkpt lat="43.19277" lon="6.62407">
        <ele>109</ele>
        <time>2013-08-24T10:18:18Z</time>
      </trkpt>
      <trkpt lat="43.19312" lon="6.62351">
        <ele>101</ele>
        <time>2013-08-24T10:18:30Z</time>
      </trkpt>
      <trkpt lat="43.19298" lon="6.62418">
        <ele>104</ele>
        <time>2013-08-24T10:18:41Z</time>
      </trkpt>
      <trkpt lat="43.19344" lon="6.62422">
        <ele>97</ele>
        <time>2013-08-24T10:18:50Z</time>
      </trkpt>
      <trkpt lat="43.19389" lon="6.6241">
        <ele>89</ele>
        <time>2013-08-24T10:18:58Z</time>
      </trkpt>
      <trkpt lat="43.19428" lon="6.62378">
        <ele>79</ele>
        <time>2013-08-24T10:19:06Z</time>
      </trkpt>
      <trkpt lat="43.19473" lon="6.62396">
        <ele>74</ele>
        <time>2013-08-24T10:19:14Z</time>
      </trkpt>
      <trkpt lat="43.19519" lon="6.62387">
        <ele>67</ele>
        <time>2013-08-24T10:19:22Z</time>
      </trkpt>
      <trkpt lat="43.19562" lon="6.62411">
        <ele>62</ele>
        <time>2013-08-24T10:19:29Z</time>
      </trkpt>
      <trkpt lat="43.19614" lon="6.62423">
        <ele>58</ele>
        <time>2013-08-24T10:19:36Z</time>
      </trkpt>
      <trkpt lat="43.19654" lon="6.62462">
        <ele>52</ele>
        <time>2013-08-24T10:19:42Z</time>
      </trkpt>
      <trkpt lat="43.19699" lon="6.62476">
        <ele>49</ele>
        <time>2013-08-24T10:19:47Z</time>
      </trkpt>
      <trkpt lat="43.19748" lon="6.62466">
        <ele>47</ele>
        <time>2013-08-24T10:19:52Z</time>
      </trkpt>
      <trkpt lat="43.19794" lon="6.62475">
        <ele>46</ele>
        <time>2013-08-24T10:19:57Z</time>
      </trkpt>
      <trkpt lat="43.19841" lon="6.62481">
        <ele>45</ele>
        <time>2013-08-24T10:20:03Z</time>
      </trkpt>
      <trkpt lat="43.19886" lon="6.6247">
        <ele>44</ele>
        <time>2013-08-24T10:20:09Z</time>
      </trkpt>
      <trkpt lat="43.19936" lon="6.62465">
        <ele>42</ele>
        <time>2013-08-24T10:20:16Z</time>
      </trkpt>
      <trkpt lat="43.19982" lon="6.62457">
        <ele>41</ele>
        <time>2013-08-24T10:20:23Z</time>
      </trkpt>
      <trkpt lat="43.20033" lon="6.62451">
        <ele>39</ele>
        <time>2013-08-24T10:20:31Z</time>
      </trkpt>
      <trkpt lat="43.20075" lon="6.62463">
        <ele>38</ele>
        <time>2013-08-24T10:20:44Z</time>
      </trkpt>
      <trkpt lat="43.20125" lon="6.62457">
        <ele>38</ele>
        <time>2013-08-24T10:20:57Z</time>
      </trkpt>
      <trkpt lat="43.20175" lon="6.62453">
        <ele>38</ele>
        <time>2013-08-24T10:21:06Z</time>
      </trkpt>
      <trkpt lat="43.20221" lon="6.62436">
        <ele>38</ele>
        <time>2013-08-24T10:21:19Z</time>
      </trkpt>
      <trkpt lat="43.20266" lon="6.62413">
        <ele>39</ele>
        <time>2013-08-24T10:21:35Z</time>
      </trkpt>
      <trkpt lat="43.20311" lon="6.62396">
        <ele>39</ele>
        <time>2013-08-24T10:21:46Z</time>
      </trkpt>
      <trkpt lat="43.20354" lon="6.62368">
        <ele>40</ele>
        <time>2013-08-24T10:21:56Z</time>
      </trkpt>
      <trkpt lat="43.20394" lon="6.62338">
        <ele>41</ele>
        <time>2013-08-24T10:22:08Z</time>
      </trkpt>
      <trkpt lat="43.20431" lon="6.62302">
        <ele>42</ele>
        <time>2013-08-24T10:22:25Z</time>
      </trkpt>
      <trkpt lat="43.20465" lon="6.62257">
        <ele>42</ele>
        <time>2013-08-24T10:22:42Z</time>
      </trkpt>
      <trkpt lat="43.20498" lon="6.62209">
        <ele>44</ele>
        <time>2013-08-24T10:23:01Z</time>
      </trkpt>
      <trkpt lat="43.20543" lon="6.62204">
        <ele>43</ele>
        <time>2013-08-24T10:23:16Z</time>
      </trkpt>
      <trkpt lat="43.20591" lon="6.62204">
        <ele>43</ele>
        <time>2013-08-24T10:23:27Z</time>
      </trkpt>
      <trkpt lat="43.20639" lon="6.62206">
        <ele>42</ele>
        <time>2013-08-24T10:23:36Z</time>
      </trkpt>
      <trkpt lat="43.20688" lon="6.6221">
        <ele>42</ele>
        <time>2013-08-24T10:23:44Z</time>
      </trkpt>
      <trkpt lat="43.20738" lon="6.62208">
        <ele>44</ele>
        <time>2013-08-24T10:23:53Z</time>
      </trkpt>
      <trkpt lat="43.20782" lon="6.6219">
        <ele>46</ele>
        <time>2013-08-24T10:24:04Z</time>
      </trkpt>
      <trkpt lat="43.20821" lon="6.62164">
        <ele>48</ele>
        <time>2013-08-24T10:24:17Z</time>
      </trkpt>
      <trkpt lat="43.20862" lon="6.62134">
        <ele>50</ele>
        <time>2013-08-24T10:24:33Z</time>
      </trkpt>
      <trkpt lat="43.20905" lon="6.62107">
        <ele>52</ele>
        <time>2013-08-24T10:24:48Z</time>
      </trkpt>
      <trkpt lat="43.20952" lon="6.62109">
        <ele>52</ele>
        <time>2013-08-24T10:25:04Z</time>
      </trkpt>
      <trkpt lat="43.21049" lon="6.62222">
        <ele>45.096249</ele>
      </trkpt>
      <trkpt lat="43.21184" lon="6.62294">
        <ele>43.018749</ele>
      </trkpt>
      <trkpt lat="43.21274" lon="6.62445">
        <ele>38.271931</ele>
        <time>2013-08-24T10:43:49Z</time>
      </trkpt>
      <trkpt lat="43.21388" lon="6.62143">
        <ele>51.958595</ele>
        <time>2013-08-24T10:43:58Z</time>
      </trkpt>
      <trkpt lat="43.21447" lon="6.6224">
        <ele>44.251251</ele>
      </trkpt>
      <trkpt lat="43.21487" lon="6.62237">
        <ele>43</ele>
        <time>2013-08-24T10:44:05Z</time>
      </trkpt>
      <trkpt lat="43.21534" lon="6.62241">
        <ele>42</ele>
        <time>2013-08-24T10:44:18Z</time>
      </trkpt>
      <trkpt lat="43.21572" lon="6.6226">
        <ele>46</ele>
        <time>2013-08-24T10:44:37Z</time>
      </trkpt>
      <trkpt lat="43.21567" lon="6.62324">
        <ele>48</ele>
        <time>2013-08-24T10:44:55Z</time>
      </trkpt>
      <trkpt lat="43.21557" lon="6.62387">
        <ele>49</ele>
        <time>2013-08-24T10:45:10Z</time>
      </trkpt>
      <trkpt lat="43.21563" lon="6.62448">
        <ele>50</ele>
        <time>2013-08-24T10:45:26Z</time>
      </trkpt>
      <trkpt lat="43.21582" lon="6.62509">
        <ele>51</ele>
        <time>2013-08-24T10:45:41Z</time>
      </trkpt>
      <trkpt lat="43.2159" lon="6.62573">
        <ele>52</ele>
        <time>2013-08-24T10:45:58Z</time>
      </trkpt>
      <trkpt lat="43.21599" lon="6.62635">
        <ele>53</ele>
        <time>2013-08-24T10:46:17Z</time>
      </trkpt>
      <trkpt lat="43.21622" lon="6.62663">
        <ele>56</ele>
        <time>2013-08-24T10:46:48Z</time>
      </trkpt>
      <trkpt lat="43.21665" lon="6.62631">
        <ele>60</ele>
        <time>2013-08-24T10:47:11Z</time>
      </trkpt>
      <trkpt lat="43.21706" lon="6.62617">
        <ele>66</ele>
        <time>2013-08-24T10:47:37Z</time>
      </trkpt>
      <trkpt lat="43.21747" lon="6.62609">
        <ele>75</ele>
        <time>2013-08-24T10:48:21Z</time>
      </trkpt>
      <trkpt lat="43.21755" lon="6.62554">
        <ele>79</ele>
        <time>2013-08-24T10:49:03Z</time>
      </trkpt>
      <trkpt lat="43.21773" lon="6.62521">
        <ele>83</ele>
        <time>2013-08-24T10:49:51Z</time>
      </trkpt>
      <trkpt lat="43.21809" lon="6.62558">
        <ele>88</ele>
        <time>2013-08-24T10:51:29Z</time>
      </trkpt>
      <trkpt lat="43.21825" lon="6.6262">
        <ele>93</ele>
        <time>2013-08-24T10:51:56Z</time>
      </trkpt>
      <trkpt lat="43.21844" lon="6.62648">
        <ele>99</ele>
        <time>2013-08-24T10:52:34Z</time>
      </trkpt>
      <trkpt lat="43.21867" lon="6.62594">
        <ele>97</ele>
        <time>2013-08-24T10:53:02Z</time>
      </trkpt>
      <trkpt lat="43.21906" lon="6.62619">
        <ele>104</ele>
        <time>2013-08-24T10:53:40Z</time>
      </trkpt>
      <trkpt lat="43.21954" lon="6.62644">
        <ele>110</ele>
        <time>2013-08-24T10:54:22Z</time>
      </trkpt>
      <trkpt lat="43.21999" lon="6.62643">
        <ele>112</ele>
        <time>2013-08-24T10:55:49Z</time>
      </trkpt>
      <trkpt lat="43.22044" lon="6.62637">
        <ele>115</ele>
        <time>2013-08-24T10:56:31Z</time>
      </trkpt>
      <trkpt lat="43.22088" lon="6.62625">
        <ele>119</ele>
        <time>2013-08-24T10:57:48Z</time>
      </trkpt>
      <trkpt lat="43.22067" lon="6.62677">
        <ele>121</ele>
        <time>2013-08-24T10:58:36Z</time>
      </trkpt>
      <trkpt lat="43.22062" lon="6.62732">
        <ele>123</ele>
        <time>2013-08-24T10:59:31Z</time>
      </trkpt>
      <trkpt lat="43.22102" lon="6.62753">
        <ele>125</ele>
        <time>2013-08-24T11:00:33Z</time>
      </trkpt>
      <trkpt lat="43.22143" lon="6.62734">
        <ele>127</ele>
        <time>2013-08-24T11:01:26Z</time>
      </trkpt>
      <trkpt lat="43.22187" lon="6.6271">
        <ele>132</ele>
        <time>2013-08-24T11:01:46Z</time>
      </trkpt>
      <trkpt lat="43.22225" lon="6.62676">
        <ele>137</ele>
        <time>2013-08-24T11:01:56Z</time>
      </trkpt>
      <trkpt lat="43.22267" lon="6.62626">
        <ele>144</ele>
        <time>2013-08-24T11:02:05Z</time>
      </trkpt>
      <trkpt lat="43.22303" lon="6.62579">
        <ele>148</ele>
        <time>2013-08-24T11:02:13Z</time>
      </trkpt>
      <trkpt lat="43.22331" lon="6.6253">
        <ele>146</ele>
        <time>2013-08-24T11:02:30Z</time>
      </trkpt>
      <trkpt lat="43.22369" lon="6.62497">
        <ele>143</ele>
        <time>2013-08-24T11:02:40Z</time>
      </trkpt>
      <trkpt lat="43.22399" lon="6.62453">
        <ele>143</ele>
        <time>2013-08-24T11:02:55Z</time>
      </trkpt>
      <trkpt lat="43.22437" lon="6.62425">
        <ele>145</ele>
        <time>2013-08-24T11:03:15Z</time>
      </trkpt>
      <trkpt lat="43.22481" lon="6.62414">
        <ele>144</ele>
        <time>2013-08-24T11:03:35Z</time>
      </trkpt>
      <trkpt lat="43.2252" lon="6.62374">
        <ele>147</ele>
        <time>2013-08-24T11:03:52Z</time>
      </trkpt>
      <trkpt lat="43.22538" lon="6.62324">
        <ele>150</ele>
        <time>2013-08-24T11:04:21Z</time>
      </trkpt>
      <trkpt lat="43.22538" lon="6.62258">
        <ele>150</ele>
        <time>2013-08-24T11:04:43Z</time>
      </trkpt>
      <trkpt lat="43.22562" lon="6.62205">
        <ele>148</ele>
        <time>2013-08-24T11:04:53Z</time>
      </trkpt>
      <trkpt lat="43.22603" lon="6.62175">
        <ele>145</ele>
        <time>2013-08-24T11:05:02Z</time>
      </trkpt>
      <trkpt lat="43.22644" lon="6.62156">
        <ele>143</ele>
        <time>2013-08-24T11:05:11Z</time>
      </trkpt>
      <trkpt lat="43.22673" lon="6.62112">
        <ele>140</ele>
        <time>2013-08-24T11:05:20Z</time>
      </trkpt>
      <trkpt lat="43.2267" lon="6.62048">
        <ele>136</ele>
        <time>2013-08-24T11:05:28Z</time>
      </trkpt>
      <trkpt lat="43.22651" lon="6.61986">
        <ele>130</ele>
        <time>2013-08-24T11:05:36Z</time>
      </trkpt>
      <trkpt lat="43.22654" lon="6.61925">
        <ele>126</ele>
        <time>2013-08-24T11:05:48Z</time>
      </trkpt>
      <trkpt lat="43.2266" lon="6.61864">
        <ele>122</ele>
        <time>2013-08-24T11:05:57Z</time>
      </trkpt>
      <trkpt lat="43.22666" lon="6.61798">
        <ele>116</ele>
        <time>2013-08-24T11:06:06Z</time>
      </trkpt>
      <trkpt lat="43.22705" lon="6.61806">
        <ele>120</ele>
        <time>2013-08-24T11:06:28Z</time>
      </trkpt>
      <trkpt lat="43.22751" lon="6.6184">
        <ele>122</ele>
        <time>2013-08-24T11:06:59Z</time>
      </trkpt>
      <trkpt lat="43.22787" lon="6.61883">
        <ele>121</ele>
        <time>2013-08-24T11:07:27Z</time>
      </trkpt>
      <trkpt lat="43.22803" lon="6.61939">
        <ele>120</ele>
        <time>2013-08-24T11:07:45Z</time>
      </trkpt>
      <trkpt lat="43.22807" lon="6.62002">
        <ele>122</ele>
        <time>2013-08-24T11:08:00Z</time>
      </trkpt>
      <trkpt lat="43.22823" lon="6.62047">
        <ele>121</ele>
        <time>2013-08-24T11:08:18Z</time>
      </trkpt>
      <trkpt lat="43.22854" lon="6.62089">
        <ele>121</ele>
        <time>2013-08-24T11:08:33Z</time>
      </trkpt>
      <trkpt lat="43.22857" lon="6.6215">
        <ele>117</ele>
        <time>2013-08-24T11:08:43Z</time>
      </trkpt>
      <trkpt lat="43.22848" lon="6.6221">
        <ele>119</ele>
        <time>2013-08-24T11:08:53Z</time>
      </trkpt>
      <trkpt lat="43.22879" lon="6.62258">
        <ele>112</ele>
        <time>2013-08-24T11:09:04Z</time>
      </trkpt>
      <trkpt lat="43.22921" lon="6.62288">
        <ele>108</ele>
        <time>2013-08-24T11:09:14Z</time>
      </trkpt>
      <trkpt lat="43.22957" lon="6.62326">
        <ele>108</ele>
        <time>2013-08-24T11:09:28Z</time>
      </trkpt>
      <trkpt lat="43.22991" lon="6.62368">
        <ele>110</ele>
        <time>2013-08-24T11:09:47Z</time>
      </trkpt>
      <trkpt lat="43.23013" lon="6.62424">
        <ele>113</ele>
        <time>2013-08-24T11:10:06Z</time>
      </trkpt>
      <trkpt lat="43.23047" lon="6.62473">
        <ele>117</ele>
        <time>2013-08-24T11:10:25Z</time>
      </trkpt>
      <trkpt lat="43.23096" lon="6.62477">
        <ele>121</ele>
        <time>2013-08-24T11:10:42Z</time>
      </trkpt>
      <trkpt lat="43.23143" lon="6.62466">
        <ele>122</ele>
        <time>2013-08-24T11:10:58Z</time>
      </trkpt>
      <trkpt lat="43.23191" lon="6.62461">
        <ele>123</ele>
        <time>2013-08-24T11:11:08Z</time>
      </trkpt>
      <trkpt lat="43.23239" lon="6.62448">
        <ele>123</ele>
        <time>2013-08-24T11:11:18Z</time>
      </trkpt>
      <trkpt lat="43.23286" lon="6.62447">
        <ele>123</ele>
        <time>2013-08-24T11:11:35Z</time>
      </trkpt>
      <trkpt lat="43.23326" lon="6.62477">
        <ele>124</ele>
        <time>2013-08-24T11:11:48Z</time>
      </trkpt>
      <trkpt lat="43.2334" lon="6.6253">
        <ele>125</ele>
        <time>2013-08-24T11:12:03Z</time>
      </trkpt>
      <trkpt lat="43.23357" lon="6.62577">
        <ele>128</ele>
        <time>2013-08-24T11:12:19Z</time>
      </trkpt>
      <trkpt lat="43.23396" lon="6.62594">
        <ele>129</ele>
        <time>2013-08-24T11:12:39Z</time>
      </trkpt>
      <trkpt lat="43.23427" lon="6.62547">
        <ele>126</ele>
        <time>2013-08-24T11:12:53Z</time>
      </trkpt>
      <trkpt lat="43.23471" lon="6.62541">
        <ele>129</ele>
        <time>2013-08-24T11:13:10Z</time>
      </trkpt>
      <trkpt lat="43.2349" lon="6.62552">
        <ele>129.484894</ele>
        <time>2013-08-24T11:14:40Z</time>
      </trkpt>
      <trkpt lat="43.23645" lon="6.62398">
        <ele>129.555344</ele>
        <time>2013-08-24T11:14:54Z</time>
      </trkpt>
      <trkpt lat="43.23874" lon="6.62239">
        <ele>131.637817</ele>
      </trkpt>
      <trkpt lat="43.24024" lon="6.62201">
        <ele>138.998749</ele>
      </trkpt>
      <trkpt lat="43.24229" lon="6.6226">
        <ele>142.398163</ele>
      </trkpt>
      <trkpt lat="43.24597" lon="6.6245">
        <ele>138.833099</ele>
      </trkpt>
      <trkpt lat="43.24656" lon="6.62441">
        <ele>139</ele>
        <time>2013-08-24T11:40:00Z</time>
      </trkpt>
      <trkpt lat="43.24702" lon="6.62419">
        <ele>141</ele>
        <time>2013-08-24T11:40:27Z</time>
      </trkpt>
      <trkpt lat="43.24744" lon="6.62446">
        <ele>146</ele>
        <time>2013-08-24T11:41:03Z</time>
      </trkpt>
      <trkpt lat="43.24783" lon="6.62485">
        <ele>149</ele>
        <time>2013-08-24T11:41:36Z</time>
      </trkpt>
      <trkpt lat="43.24826" lon="6.6249">
        <ele>150</ele>
        <time>2013-08-24T11:41:54Z</time>
      </trkpt>
      <trkpt lat="43.24871" lon="6.62473">
        <ele>150</ele>
        <time>2013-08-24T11:42:10Z</time>
      </trkpt>
      <trkpt lat="43.24916" lon="6.62469">
        <ele>151</ele>
        <time>2013-08-24T11:42:30Z</time>
      </trkpt>
      <trkpt lat="43.24964" lon="6.62478">
        <ele>149</ele>
        <time>2013-08-24T11:42:43Z</time>
      </trkpt>
      <trkpt lat="43.2501" lon="6.62507">
        <ele>153</ele>
        <time>2013-08-24T11:42:59Z</time>
      </trkpt>
      <trkpt lat="43.25055" lon="6.62538">
        <ele>158</ele>
        <time>2013-08-24T11:43:27Z</time>
      </trkpt>
      <trkpt lat="43.251" lon="6.62551">
        <ele>161</ele>
        <time>2013-08-24T11:43:55Z</time>
      </trkpt>
      <trkpt lat="43.25134" lon="6.62515">
        <ele>163</ele>
        <time>2013-08-24T11:45:58Z</time>
      </trkpt>
      <trkpt lat="43.25171" lon="6.62471">
        <ele>163</ele>
        <time>2013-08-24T11:46:25Z</time>
      </trkpt>
      <trkpt lat="43.25192" lon="6.62417">
        <ele>164</ele>
        <time>2013-08-24T11:46:40Z</time>
      </trkpt>
      <trkpt lat="43.2522" lon="6.62364">
        <ele>164</ele>
        <time>2013-08-24T11:47:03Z</time>
      </trkpt>
      <trkpt lat="43.25269" lon="6.62338">
        <ele>164</ele>
        <time>2013-08-24T11:47:12Z</time>
      </trkpt>
      <trkpt lat="43.25306" lon="6.62303">
        <ele>156</ele>
        <time>2013-08-24T11:47:20Z</time>
      </trkpt>
      <trkpt lat="43.25321" lon="6.62245">
        <ele>150</ele>
        <time>2013-08-24T11:47:34Z</time>
      </trkpt>
      <trkpt lat="43.25302" lon="6.62183">
        <ele>144</ele>
        <time>2013-08-24T11:47:45Z</time>
      </trkpt>
      <trkpt lat="43.2529" lon="6.62114">
        <ele>136</ele>
        <time>2013-08-24T11:47:53Z</time>
      </trkpt>
      <trkpt lat="43.25279" lon="6.62045">
        <ele>131</ele>
        <time>2013-08-24T11:48:00Z</time>
      </trkpt>
      <trkpt lat="43.25285" lon="6.61978">
        <ele>128</ele>
        <time>2013-08-24T11:48:06Z</time>
      </trkpt>
      <trkpt lat="43.25289" lon="6.61914">
        <ele>127</ele>
        <time>2013-08-24T11:48:12Z</time>
      </trkpt>
      <trkpt lat="43.25296" lon="6.61852">
        <ele>128</ele>
        <time>2013-08-24T11:48:19Z</time>
      </trkpt>
      <trkpt lat="43.25321" lon="6.61796">
        <ele>129</ele>
        <time>2013-08-24T11:48:33Z</time>
      </trkpt>
      <trkpt lat="43.25345" lon="6.61741">
        <ele>132</ele>
        <time>2013-08-24T11:48:53Z</time>
      </trkpt>
      <trkpt lat="43.25366" lon="6.61683">
        <ele>132</ele>
        <time>2013-08-24T11:49:11Z</time>
      </trkpt>
      <trkpt lat="43.25387" lon="6.61626">
        <ele>132</ele>
        <time>2013-08-24T11:49:27Z</time>
      </trkpt>
      <trkpt lat="43.25412" lon="6.6157">
        <ele>131</ele>
        <time>2013-08-24T11:49:41Z</time>
      </trkpt>
      <trkpt lat="43.25444" lon="6.6152">
        <ele>131</ele>
        <time>2013-08-24T11:49:51Z</time>
      </trkpt>
      <trkpt lat="43.25462" lon="6.61461">
        <ele>130</ele>
        <time>2013-08-24T11:49:59Z</time>
      </trkpt>
      <trkpt lat="43.25479" lon="6.61407">
        <ele>128</ele>
        <time>2013-08-24T11:50:16Z</time>
      </trkpt>
      <trkpt lat="43.25514" lon="6.61358">
        <ele>124</ele>
        <time>2013-08-24T11:50:27Z</time>
      </trkpt>
      <trkpt lat="43.25554" lon="6.61309">
        <ele>123</ele>
        <time>2013-08-24T11:50:34Z</time>
      </trkpt>
      <trkpt lat="43.25587" lon="6.61265">
        <ele>124</ele>
        <time>2013-08-24T11:50:44Z</time>
      </trkpt>
      <trkpt lat="43.25625" lon="6.61223">
        <ele>123</ele>
        <time>2013-08-24T11:50:56Z</time>
      </trkpt>
      <trkpt lat="43.25661" lon="6.61181">
        <ele>122</ele>
        <time>2013-08-24T11:51:12Z</time>
      </trkpt>
      <trkpt lat="43.2569" lon="6.6113">
        <ele>122</ele>
        <time>2013-08-24T11:51:22Z</time>
      </trkpt>
      <trkpt lat="43.25699" lon="6.61069">
        <ele>121</ele>
        <time>2013-08-24T11:51:35Z</time>
      </trkpt>
      <trkpt lat="43.2571" lon="6.61011">
        <ele>119</ele>
        <time>2013-08-24T11:51:47Z</time>
      </trkpt>
      <trkpt lat="43.25723" lon="6.60944">
        <ele>116</ele>
        <time>2013-08-24T11:51:54Z</time>
      </trkpt>
      <trkpt lat="43.2572" lon="6.60882">
        <ele>111</ele>
        <time>2013-08-24T11:52:03Z</time>
      </trkpt>
      <trkpt lat="43.25751" lon="6.60832">
        <ele>106</ele>
        <time>2013-08-24T11:52:20Z</time>
      </trkpt>
      <trkpt lat="43.25781" lon="6.60774">
        <ele>94</ele>
        <time>2013-08-24T11:52:28Z</time>
      </trkpt>
      <trkpt lat="43.25795" lon="6.60713">
        <ele>88</ele>
        <time>2013-08-24T11:52:35Z</time>
      </trkpt>
      <trkpt lat="43.25805" lon="6.60656">
        <ele>88</ele>
        <time>2013-08-24T11:52:48Z</time>
      </trkpt>
      <trkpt lat="43.25815" lon="6.60595">
        <ele>94</ele>
        <time>2013-08-24T11:53:04Z</time>
      </trkpt>
      <trkpt lat="43.25823" lon="6.60538">
        <ele>98</ele>
        <time>2013-08-24T11:53:22Z</time>
      </trkpt>
      <trkpt lat="43.25825" lon="6.60473">
        <ele>99</ele>
        <time>2013-08-24T11:53:37Z</time>
      </trkpt>
      <trkpt lat="43.25803" lon="6.60413">
        <ele>95</ele>
        <time>2013-08-24T11:53:43Z</time>
      </trkpt>
      <trkpt lat="43.25783" lon="6.60397">
        <ele>90.772522</ele>
        <time>2013-08-24T11:53:53Z</time>
      </trkpt>
      <trkpt lat="43.25775" lon="6.60384">
        <ele>88.55983</ele>
        <time>2013-08-24T11:54:19Z</time>
      </trkpt>
      <trkpt lat="43.25759" lon="6.6037">
        <ele>85.742065</ele>
        <time>2013-08-24T11:54:30Z</time>
      </trkpt>
      <trkpt lat="43.25723" lon="6.6036">
        <ele>83.281815</ele>
        <time>2013-08-24T11:54:38Z</time>
      </trkpt>
      <trkpt lat="43.25739" lon="6.60329">
        <ele>81.884918</ele>
        <time>2013-08-24T11:54:52Z</time>
      </trkpt>
      <trkpt lat="43.25768" lon="6.60314">
        <ele>79.588753</ele>
        <time>2013-08-24T11:55:09Z</time>
      </trkpt>
      <trkpt lat="43.25778" lon="6.6031">
        <ele>80</ele>
        <time>2013-08-24T11:55:17Z</time>
      </trkpt>
      <trkpt lat="43.25796" lon="6.60305">
        <ele>80.16375</ele>
        <time>2013-08-24T11:55:28Z</time>
      </trkpt>
      <trkpt lat="43.25753" lon="6.6026">
        <ele>69</ele>
        <time>2013-08-24T11:55:45Z</time>
      </trkpt>
      <trkpt lat="43.25704" lon="6.60242">
        <ele>66</ele>
        <time>2013-08-24T11:55:51Z</time>
      </trkpt>
      <trkpt lat="43.25658" lon="6.60226">
        <ele>63</ele>
        <time>2013-08-24T11:55:56Z</time>
      </trkpt>
      <trkpt lat="43.25609" lon="6.60214">
        <ele>59</ele>
        <time>2013-08-24T11:56:01Z</time>
      </trkpt>
      <trkpt lat="43.25562" lon="6.60218">
        <ele>55</ele>
        <time>2013-08-24T11:56:06Z</time>
      </trkpt>
      <trkpt lat="43.25566" lon="6.60186">
        <ele>50</ele>
        <time>2013-08-24T11:56:16Z</time>
      </trkpt>
      <trkpt lat="43.25602" lon="6.60132">
        <ele>44</ele>
        <time>2013-08-24T11:56:24Z</time>
      </trkpt>
      <trkpt lat="43.25652" lon="6.60096">
        <ele>41</ele>
        <time>2013-08-24T11:56:31Z</time>
      </trkpt>
      <trkpt lat="43.25691" lon="6.60034">
        <ele>35.743748</ele>
        <time>2013-08-24T11:56:40Z</time>
      </trkpt>
      <trkpt lat="43.25668" lon="6.60009">
        <ele>34</ele>
        <time>2013-08-24T11:56:56Z</time>
      </trkpt>
      <trkpt lat="43.25622" lon="6.59988">
        <ele>33</ele>
        <time>2013-08-24T11:57:05Z</time>
      </trkpt>
      <trkpt lat="43.25575" lon="6.59962">
        <ele>31</ele>
        <time>2013-08-24T11:57:15Z</time>
      </trkpt>
      <trkpt lat="43.25542" lon="6.59957">
        <ele>30.745306</ele>
        <time>2013-08-24T11:57:31Z</time>
      </trkpt>
      <trkpt lat="43.25499" lon="6.59969">
        <ele>29.084784</ele>
        <time>2013-08-24T11:57:44Z</time>
      </trkpt>
      <trkpt lat="43.25465" lon="6.59957">
        <ele>27.064096</ele>
        <time>2013-08-24T11:57:58Z</time>
      </trkpt>
      <trkpt lat="43.25449" lon="6.59919">
        <ele>25.3475</ele>
        <time>2013-08-24T11:58:17Z</time>
      </trkpt>
      <trkpt lat="43.25255" lon="6.59934">
        <ele>17.37261</ele>
        <time>2013-08-24T11:58:28Z</time>
      </trkpt>
      <trkpt lat="43.25189" lon="6.59832">
        <ele>13.254841</ele>
        <time>2013-08-24T11:58:44Z</time>
      </trkpt>
      <trkpt lat="43.25291" lon="6.59544">
        <ele>8.730591</ele>
        <time>2013-08-24T11:58:53Z</time>
      </trkpt>
      <trkpt lat="43.25292" lon="6.59504">
        <ele>8.228466</ele>
        <time>2013-08-24T11:59:09Z</time>
      </trkpt>
      <trkpt lat="43.25276" lon="6.59405">
        <ele>8.6775</ele>
        <time>2013-08-24T11:59:26Z</time>
      </trkpt>
      <trkpt lat="43.25284" lon="6.59362">
        <ele>8.5275</ele>
        <time>2013-08-24T11:59:37Z</time>
      </trkpt>
      <trkpt lat="43.25297" lon="6.59294">
        <ele>8.603828</ele>
        <time>2013-08-24T11:59:45Z</time>
      </trkpt>
      <trkpt lat="43.25303" lon="6.59257">
        <ele>9</ele>
        <time>2013-08-24T11:59:54Z</time>
      </trkpt>
      <trkpt lat="43.25323" lon="6.59231">
        <ele>8.7875</ele>
        <time>2013-08-24T12:00:23Z</time>
      </trkpt>
      <trkpt lat="43.2532" lon="6.59205">
        <ele>8.8625</ele>
        <time>2013-08-24T12:00:36Z</time>
      </trkpt>
      <trkpt lat="43.25345" lon="6.59175">
        <ele>8</ele>
        <time>2013-08-24T12:01:52Z</time>
      </trkpt>
      <trkpt lat="43.25391" lon="6.59154">
        <ele>8</ele>
        <time>2013-08-24T12:02:01Z</time>
      </trkpt>
      <trkpt lat="43.25433" lon="6.59124">
        <ele>8</ele>
        <time>2013-08-24T12:02:09Z</time>
      </trkpt>
      <trkpt lat="43.25438" lon="6.59059">
        <ele>8</ele>
        <time>2013-08-24T12:02:18Z</time>
      </trkpt>
      <trkpt lat="43.25435" lon="6.58997">
        <ele>8</ele>
        <time>2013-08-24T12:02:26Z</time>
      </trkpt>
      <trkpt lat="43.25432" lon="6.58927">
        <ele>8</ele>
        <time>2013-08-24T12:02:34Z</time>
      </trkpt>
      <trkpt lat="43.25444" lon="6.58867">
        <ele>9</ele>
        <time>2013-08-24T12:02:41Z</time>
      </trkpt>
      <trkpt lat="43.2547" lon="6.58808">
        <ele>9</ele>
        <time>2013-08-24T12:02:49Z</time>
      </trkpt>
      <trkpt lat="43.25488" lon="6.58751">
        <ele>9</ele>
        <time>2013-08-24T12:02:57Z</time>
      </trkpt>
      <trkpt lat="43.25504" lon="6.58685">
        <ele>9</ele>
        <time>2013-08-24T12:03:06Z</time>
      </trkpt>
      <trkpt lat="43.25501" lon="6.58621">
        <ele>9</ele>
        <time>2013-08-24T12:03:15Z</time>
      </trkpt>
      <trkpt lat="43.25468" lon="6.58576">
        <ele>9</ele>
        <time>2013-08-24T12:03:25Z</time>
      </trkpt>
      <trkpt lat="43.25435" lon="6.5853">
        <ele>9</ele>
        <time>2013-08-24T12:03:39Z</time>
      </trkpt>
      <trkpt lat="43.25458" lon="6.58473">
        <ele>8</ele>
        <time>2013-08-24T12:03:50Z</time>
      </trkpt>
      <trkpt lat="43.25498" lon="6.58431">
        <ele>7</ele>
        <time>2013-08-24T12:04:17Z</time>
      </trkpt>
      <trkpt lat="43.25528" lon="6.58382">
        <ele>6</ele>
        <time>2013-08-24T12:04:30Z</time>
      </trkpt>
      <trkpt lat="43.25559" lon="6.58334">
        <ele>6</ele>
        <time>2013-08-24T12:04:44Z</time>
      </trkpt>
      <trkpt lat="43.256" lon="6.58295">
        <ele>5</ele>
        <time>2013-08-24T12:04:55Z</time>
      </trkpt>
      <trkpt lat="43.2564" lon="6.58266">
        <ele>5</ele>
        <time>2013-08-24T12:05:06Z</time>
      </trkpt>
      <trkpt lat="43.2568" lon="6.58233">
        <ele>5</ele>
        <time>2013-08-24T12:05:17Z</time>
      </trkpt>
      <trkpt lat="43.25719" lon="6.58196">
        <ele>6</ele>
        <time>2013-08-24T12:05:29Z</time>
      </trkpt>
      <trkpt lat="43.25759" lon="6.58165">
        <ele>6</ele>
        <time>2013-08-24T12:05:41Z</time>
      </trkpt>
      <trkpt lat="43.25802" lon="6.58183">
        <ele>6</ele>
        <time>2013-08-24T12:05:51Z</time>
      </trkpt>
      <trkpt lat="43.25847" lon="6.5821">
        <ele>6</ele>
        <time>2013-08-24T12:06:02Z</time>
      </trkpt>
      <trkpt lat="43.25874" lon="6.58166">
        <ele>6</ele>
        <time>2013-08-24T12:06:12Z</time>
      </trkpt>
      <trkpt lat="43.25911" lon="6.58164">
        <ele>6</ele>
        <time>2013-08-24T12:06:24Z</time>
      </trkpt>
      <trkpt lat="43.25955" lon="6.58191">
        <ele>6</ele>
        <time>2013-08-24T12:06:35Z</time>
      </trkpt>
      <trkpt lat="43.25989" lon="6.58238">
        <ele>5</ele>
        <time>2013-08-24T12:06:47Z</time>
      </trkpt>
      <trkpt lat="43.2603" lon="6.58269">
        <ele>5</ele>
        <time>2013-08-24T12:06:57Z</time>
      </trkpt>
      <trkpt lat="43.26074" lon="6.58289">
        <ele>5</ele>
        <time>2013-08-24T12:07:06Z</time>
      </trkpt>
      <trkpt lat="43.26121" lon="6.58313">
        <ele>5</ele>
        <time>2013-08-24T12:07:16Z</time>
      </trkpt>
      <trkpt lat="43.26168" lon="6.58338">
        <ele>5</ele>
        <time>2013-08-24T12:07:25Z</time>
      </trkpt>
      <trkpt lat="43.26212" lon="6.58356">
        <ele>5</ele>
        <time>2013-08-24T12:07:35Z</time>
      </trkpt>
      <trkpt lat="43.26256" lon="6.58378">
        <ele>4</ele>
        <time>2013-08-24T12:07:46Z</time>
      </trkpt>
      <trkpt lat="43.26291" lon="6.58363">
        <ele>4</ele>
        <time>2013-08-24T12:08:36Z</time>
      </trkpt>
      <trkpt lat="43.26334" lon="6.58374">
        <ele>4</ele>
        <time>2013-08-24T12:08:50Z</time>
      </trkpt>
      <trkpt lat="43.26371" lon="6.58336">
        <ele>4</ele>
        <time>2013-08-24T12:09:06Z</time>
      </trkpt>
      <trkpt lat="43.26409" lon="6.58296">
        <ele>4</ele>
        <time>2013-08-24T12:09:17Z</time>
      </trkpt>
      <trkpt lat="43.26428" lon="6.58235">
        <ele>4</ele>
        <time>2013-08-24T12:09:27Z</time>
      </trkpt>
      <trkpt lat="43.26435" lon="6.58172">
        <ele>5</ele>
        <time>2013-08-24T12:09:39Z</time>
      </trkpt>
      <trkpt lat="43.26423" lon="6.58108">
        <ele>5</ele>
        <time>2013-08-24T12:09:51Z</time>
      </trkpt>
      <trkpt lat="43.26451" lon="6.58073">
        <ele>5</ele>
        <time>2013-08-24T12:10:04Z</time>
      </trkpt>
      <trkpt lat="43.26463" lon="6.58011">
        <ele>5</ele>
        <time>2013-08-24T12:10:16Z</time>
      </trkpt>
      <trkpt lat="43.26473" lon="6.57948">
        <ele>5</ele>
        <time>2013-08-24T12:10:26Z</time>
      </trkpt>
      <trkpt lat="43.26484" lon="6.57886">
        <ele>6</ele>
        <time>2013-08-24T12:10:36Z</time>
      </trkpt>
      <trkpt lat="43.26496" lon="6.5782">
        <ele>6</ele>
        <time>2013-08-24T12:10:48Z</time>
      </trkpt>
      <trkpt lat="43.26503" lon="6.57753">
        <ele>6</ele>
        <time>2013-08-24T12:10:58Z</time>
      </trkpt>
      <trkpt lat="43.26524" lon="6.57707">
        <ele>6</ele>
        <time>2013-08-24T12:11:08Z</time>
      </trkpt>
      <trkpt lat="43.26548" lon="6.57651">
        <ele>6</ele>
        <time>2013-08-24T12:11:20Z</time>
      </trkpt>
      <trkpt lat="43.26578" lon="6.57599">
        <ele>5</ele>
        <time>2013-08-24T12:11:33Z</time>
      </trkpt>
      <trkpt lat="43.26612" lon="6.57552">
        <ele>5</ele>
        <time>2013-08-24T12:11:42Z</time>
      </trkpt>
      <trkpt lat="43.26646" lon="6.57504">
        <ele>5</ele>
        <time>2013-08-24T12:11:53Z</time>
      </trkpt>
      <trkpt lat="43.26685" lon="6.57464">
        <ele>5</ele>
        <time>2013-08-24T12:12:06Z</time>
      </trkpt>
      <trkpt lat="43.2673" lon="6.57445">
        <ele>4</ele>
        <time>2013-08-24T12:12:15Z</time>
      </trkpt>
      <trkpt lat="43.26775" lon="6.57426">
        <ele>4</ele>
        <time>2013-08-24T12:12:23Z</time>
      </trkpt>
      <trkpt lat="43.26821" lon="6.57407">
        <ele>4</ele>
        <time>2013-08-24T12:12:31Z</time>
      </trkpt>
      <trkpt lat="43.26867" lon="6.57393">
        <ele>4</ele>
        <time>2013-08-24T12:12:39Z</time>
      </trkpt>
      <trkpt lat="43.2691" lon="6.57369">
        <ele>4</ele>
        <time>2013-08-24T12:12:50Z</time>
      </trkpt>
      <trkpt lat="43.26954" lon="6.57352">
        <ele>4</ele>
        <time>2013-08-24T12:12:59Z</time>
      </trkpt>
      <trkpt lat="43.26999" lon="6.57338">
        <ele>4</ele>
        <time>2013-08-24T12:13:07Z</time>
      </trkpt>
      <trkpt lat="43.27046" lon="6.57323">
        <ele>4</ele>
        <time>2013-08-24T12:13:15Z</time>
      </trkpt>
      <trkpt lat="43.27094" lon="6.57328">
        <ele>4</ele>
        <time>2013-08-24T12:13:23Z</time>
      </trkpt>
      <trkpt lat="43.27142" lon="6.57346">
        <ele>4</ele>
        <time>2013-08-24T12:13:32Z</time>
      </trkpt>
      <trkpt lat="43.27186" lon="6.57362">
        <ele>4</ele>
        <time>2013-08-24T12:13:40Z</time>
      </trkpt>
      <trkpt lat="43.27235" lon="6.57379">
        <ele>4</ele>
        <time>2013-08-24T12:13:48Z</time>
      </trkpt>
      <trkpt lat="43.27281" lon="6.57401">
        <ele>4</ele>
        <time>2013-08-24T12:13:56Z</time>
      </trkpt>
      <trkpt lat="43.2733" lon="6.57424">
        <ele>4</ele>
        <time>2013-08-24T12:14:04Z</time>
      </trkpt>
      <trkpt lat="43.27374" lon="6.57441">
        <ele>3</ele>
        <time>2013-08-24T12:14:12Z</time>
      </trkpt>
      <trkpt lat="43.27416" lon="6.57466">
        <ele>3</ele>
        <time>2013-08-24T12:14:20Z</time>
      </trkpt>
      <trkpt lat="43.27457" lon="6.57475">
        <ele>4</ele>
        <time>2013-08-24T12:14:36Z</time>
      </trkpt>
      <trkpt lat="43.27505" lon="6.5748">
        <ele>4</ele>
        <time>2013-08-24T12:14:47Z</time>
      </trkpt>
      <trkpt lat="43.27555" lon="6.57495">
        <ele>5</ele>
        <time>2013-08-24T12:14:56Z</time>
      </trkpt>
      <trkpt lat="43.27603" lon="6.5751">
        <ele>5</ele>
        <time>2013-08-24T12:15:05Z</time>
      </trkpt>
      <trkpt lat="43.27649" lon="6.57527">
        <ele>6</ele>
        <time>2013-08-24T12:15:13Z</time>
      </trkpt>
      <trkpt lat="43.27697" lon="6.57547">
        <ele>6</ele>
        <time>2013-08-24T12:15:21Z</time>
      </trkpt>
      <trkpt lat="43.27746" lon="6.57568">
        <ele>7</ele>
        <time>2013-08-24T12:15:29Z</time>
      </trkpt>
      <trkpt lat="43.27791" lon="6.57583">
        <ele>7</ele>
        <time>2013-08-24T12:15:37Z</time>
      </trkpt>
      <trkpt lat="43.27835" lon="6.57602">
        <ele>8</ele>
        <time>2013-08-24T12:15:46Z</time>
      </trkpt>
      <trkpt lat="43.27873" lon="6.57643">
        <ele>8</ele>
        <time>2013-08-24T12:15:56Z</time>
      </trkpt>
      <trkpt lat="43.27907" lon="6.57687">
        <ele>9</ele>
        <time>2013-08-24T12:16:06Z</time>
      </trkpt>
      <trkpt lat="43.27931" lon="6.5774">
        <ele>9</ele>
        <time>2013-08-24T12:16:16Z</time>
      </trkpt>
      <trkpt lat="43.27954" lon="6.57801">
        <ele>8</ele>
        <time>2013-08-24T12:16:28Z</time>
      </trkpt>
      <trkpt lat="43.27986" lon="6.57856">
        <ele>8</ele>
        <time>2013-08-24T12:16:39Z</time>
      </trkpt>
      <trkpt lat="43.28016" lon="6.57911">
        <ele>7</ele>
        <time>2013-08-24T12:16:50Z</time>
      </trkpt>
      <trkpt lat="43.28038" lon="6.57964">
        <ele>7</ele>
        <time>2013-08-24T12:17:01Z</time>
      </trkpt>
      <trkpt lat="43.28062" lon="6.58023">
        <ele>6</ele>
        <time>2013-08-24T12:17:13Z</time>
      </trkpt>
      <trkpt lat="43.28076" lon="6.58088">
        <ele>6</ele>
        <time>2013-08-24T12:17:25Z</time>
      </trkpt>
      <trkpt lat="43.28091" lon="6.58149">
        <ele>5</ele>
        <time>2013-08-24T12:17:35Z</time>
      </trkpt>
      <trkpt lat="43.2811" lon="6.58212">
        <ele>5</ele>
        <time>2013-08-24T12:17:46Z</time>
      </trkpt>
      <trkpt lat="43.28122" lon="6.58272">
        <ele>6</ele>
        <time>2013-08-24T12:17:56Z</time>
      </trkpt>
      <trkpt lat="43.28136" lon="6.58338">
        <ele>5</ele>
        <time>2013-08-24T12:18:07Z</time>
      </trkpt>
      <trkpt lat="43.2815" lon="6.58404">
        <ele>5</ele>
        <time>2013-08-24T12:18:18Z</time>
      </trkpt>
      <trkpt lat="43.28167" lon="6.58466">
        <ele>6</ele>
        <time>2013-08-24T12:18:29Z</time>
      </trkpt>
      <trkpt lat="43.28191" lon="6.58523">
        <ele>6</ele>
        <time>2013-08-24T12:18:39Z</time>
      </trkpt>
      <trkpt lat="43.28209" lon="6.58583">
        <ele>6</ele>
        <time>2013-08-24T12:18:50Z</time>
      </trkpt>
      <trkpt lat="43.28193" lon="6.58637">
        <ele>5</ele>
        <time>2013-08-24T12:19:02Z</time>
      </trkpt>
      <trkpt lat="43.28178" lon="6.58699">
        <ele>3</ele>
        <time>2013-08-24T12:19:13Z</time>
      </trkpt>
    </trkseg>
  </trk>
</gpx>